UAE193 OMDB-LPPT
Flight info
| Callsign | UAE193 |
|---|---|
| Flight time | 9h 37m |
| Altitude | 33000 |
| Route | ANVIX L223 TARDI N629 BOTAM Y855 LAKLU/N0488F340 Q204 NALKI G652 TOKRA DCT ALROK DCT BOSOB DCT ITRUX Y511 PMA Z712 WEJ/N0484F360 L677 CVO L617 NABSI M872 METRU DCT ARLOS DCT AGARI DCT DINUX/N0468F380 DCT SONAK DCT MORJA UA411 ANB UM134 LUXUR DCT GENIO DCT XARON DCT OLMIR DCT NINES/N0465F370 M134 NINOT/N0466F380 DCT COMPI DCT VLC DCT CLS DCT WALLY DCT CATON/N0350F130 N733 CJN DCT PALIO DCT AKOKI DCT GOTOR DCT TLD DCT NATPA DCT MELON DCT CCS DCT UPULO |
| Aircraft | B77W/H-SDE1E2E3FGHIJ2J3J4J5M1RWXY/LB1D1 |
Departure
| Time | 2026-04-22 14:02 |
|---|---|
| Airport | Dubai International Airport (OMDB) |
Arrival
| Time | 2026-04-22 23:39 |
|---|---|
| Airport | Lisbon Humberto Delgado Airport (LPPT) |
| Time | Latitude | Longitude | Altitude | Speed | Heading |
|---|---|---|---|---|---|
| 2026-04-22 12:49 | 25.25292 | 55.35574 | 30 ft | 0 kts | 211° |
| 2026-04-22 13:30 | 25.25293 | 55.35574 | 26 ft | 2 kts | 211° |
| 2026-04-22 13:30 | 25.25315 | 55.35589 | 26 ft | 4 kts | 211° |
| 2026-04-22 13:30 | 25.25337 | 55.35605 | 28 ft | 4 kts | 219° |
| 2026-04-22 13:31 | 25.25358 | 55.35619 | 29 ft | 4 kts | 177° |
| 2026-04-22 13:31 | 25.25380 | 55.35615 | 26 ft | 4 kts | 136° |
| 2026-04-22 13:31 | 25.25393 | 55.35591 | 27 ft | 4 kts | 118° |
| 2026-04-22 13:31 | 25.25398 | 55.35581 | 26 ft | 0 kts | 122° |
| 2026-04-22 13:40 | 25.25376 | 55.35627 | 27 ft | 11 kts | 108° |
| 2026-04-22 13:40 | 25.25395 | 55.35677 | 27 ft | 11 kts | 32° |
| 2026-04-22 13:40 | 25.25464 | 55.35649 | 26 ft | 12 kts | 310° |
| 2026-04-22 13:40 | 25.25487 | 55.35609 | 28 ft | 0 kts | 301° |
| 2026-04-22 13:49 | 25.25498 | 55.35589 | 31 ft | 9 kts | 301° |
| 2026-04-22 13:49 | 25.25547 | 55.35502 | 29 ft | 15 kts | 302° |
| 2026-04-22 13:49 | 25.25601 | 55.35406 | 28 ft | 15 kts | 301° |
| 2026-04-22 13:50 | 25.25658 | 55.35307 | 29 ft | 15 kts | 301° |
| 2026-04-22 13:50 | 25.25724 | 55.35219 | 27 ft | 15 kts | 339° |
| 2026-04-22 13:50 | 25.25823 | 55.35244 | 29 ft | 15 kts | 31° |
| 2026-04-22 13:50 | 25.25912 | 55.35305 | 27 ft | 15 kts | 31° |
| 2026-04-22 13:51 | 25.25987 | 55.35386 | 27 ft | 15 kts | 61° |
| 2026-04-22 13:51 | 25.26003 | 55.35499 | 27 ft | 15 kts | 95° |
| 2026-04-22 13:51 | 25.25961 | 55.35605 | 28 ft | 15 kts | 121° |
| 2026-04-22 13:51 | 25.25908 | 55.35704 | 27 ft | 15 kts | 120° |
| 2026-04-22 13:52 | 25.25856 | 55.35806 | 28 ft | 15 kts | 124° |
| 2026-04-22 13:52 | 25.25795 | 55.35901 | 28 ft | 15 kts | 122° |
| 2026-04-22 13:52 | 25.25739 | 55.36000 | 28 ft | 15 kts | 121° |
| 2026-04-22 13:52 | 25.25684 | 55.36100 | 28 ft | 15 kts | 121° |
| 2026-04-22 13:53 | 25.25628 | 55.36197 | 29 ft | 15 kts | 122° |
| 2026-04-22 13:53 | 25.25573 | 55.36297 | 28 ft | 15 kts | 122° |
| 2026-04-22 13:53 | 25.25517 | 55.36395 | 28 ft | 15 kts | 122° |
| 2026-04-22 13:53 | 25.25461 | 55.36494 | 29 ft | 15 kts | 122° |
| 2026-04-22 13:54 | 25.25405 | 55.36594 | 28 ft | 15 kts | 121° |
| 2026-04-22 13:54 | 25.25352 | 55.36693 | 27 ft | 15 kts | 123° |
| 2026-04-22 13:54 | 25.25295 | 55.36791 | 29 ft | 15 kts | 122° |
| 2026-04-22 13:54 | 25.25240 | 55.36890 | 29 ft | 15 kts | 121° |
| 2026-04-22 13:55 | 25.25183 | 55.36989 | 29 ft | 15 kts | 121° |
| 2026-04-22 13:55 | 25.25129 | 55.37090 | 30 ft | 15 kts | 122° |
| 2026-04-22 13:55 | 25.25073 | 55.37188 | 30 ft | 15 kts | 121° |
| 2026-04-22 13:55 | 25.25017 | 55.37286 | 30 ft | 15 kts | 122° |
| 2026-04-22 13:56 | 25.24962 | 55.37384 | 30 ft | 15 kts | 121° |
| 2026-04-22 13:56 | 25.24906 | 55.37484 | 30 ft | 15 kts | 121° |
| 2026-04-22 13:56 | 25.24851 | 55.37582 | 29 ft | 15 kts | 122° |
| 2026-04-22 13:56 | 25.24796 | 55.37682 | 29 ft | 15 kts | 122° |
| 2026-04-22 13:57 | 25.24740 | 55.37780 | 29 ft | 15 kts | 121° |
| 2026-04-22 13:57 | 25.24685 | 55.37879 | 29 ft | 15 kts | 123° |
| 2026-04-22 13:57 | 25.24682 | 55.37949 | 29 ft | 8 kts | 55° |
| 2026-04-22 13:57 | 25.24685 | 55.37952 | 30 ft | 0 kts | 44° |
| 2026-04-22 14:00 | 25.24694 | 55.37962 | 30 ft | 7 kts | 44° |
| 2026-04-22 14:00 | 25.24748 | 55.38004 | 33 ft | 10 kts | 30° |
| 2026-04-22 14:00 | 25.24817 | 55.37993 | 33 ft | 11 kts | 329° |
| 2026-04-22 14:00 | 25.24844 | 55.37957 | 34 ft | 0 kts | 303° |
| 2026-04-22 14:01 | 25.24939 | 55.37785 | 35 ft | 70 kts | 302° |
| 2026-04-22 14:01 | 25.25343 | 55.37055 | 35 ft | 145 kts | 301° |
| 2026-04-22 14:01 | 25.25967 | 55.35946 | 40 ft | 192 kts | 303° |
| 2026-04-22 14:01 | 25.26717 | 55.34677 | 426 ft | 199 kts | 303° |
| 2026-04-22 14:02 | 25.27457 | 55.33374 | 1086 ft | 199 kts | 301° |
| 2026-04-22 14:02 | 25.28171 | 55.32054 | 1680 ft | 201 kts | 302° |
| 2026-04-22 14:02 | 25.28884 | 55.30744 | 2150 ft | 200 kts | 300° |
| 2026-04-22 14:02 | 25.29273 | 55.29271 | 2493 ft | 204 kts | 265° |
| 2026-04-22 14:03 | 25.28871 | 55.27766 | 2870 ft | 205 kts | 247° |
| 2026-04-22 14:03 | 25.28271 | 55.26346 | 3300 ft | 207 kts | 245° |
| 2026-04-22 14:03 | 25.27644 | 55.24900 | 3744 ft | 207 kts | 245° |
| 2026-04-22 14:03 | 25.27025 | 55.23467 | 4192 ft | 206 kts | 245° |
| 2026-04-22 14:04 | 25.26415 | 55.22050 | 4602 ft | 206 kts | 245° |
| 2026-04-22 14:04 | 25.25788 | 55.20582 | 4850 ft | 219 kts | 244° |
| 2026-04-22 14:04 | 25.25119 | 55.19019 | 5102 ft | 232 kts | 244° |
| 2026-04-22 14:04 | 25.24240 | 55.17500 | 5393 ft | 239 kts | 220° |
| 2026-04-22 14:05 | 25.22724 | 55.16730 | 5780 ft | 247 kts | 187° |
| 2026-04-22 14:05 | 25.20992 | 55.16774 | 6084 ft | 255 kts | 178° |
| 2026-04-22 14:05 | 25.17837 | 55.18389 | 6330 ft | 278 kts | 124° |
| 2026-04-22 14:06 | 25.16899 | 55.20320 | 6312 ft | 287 kts | 119° |
| 2026-04-22 14:06 | 25.15992 | 55.22275 | 6306 ft | 289 kts | 119° |
| 2026-04-22 14:06 | 25.15062 | 55.24238 | 6308 ft | 290 kts | 120° |
| 2026-04-22 14:06 | 25.14117 | 55.26212 | 6294 ft | 290 kts | 120° |
| 2026-04-22 14:07 | 25.13168 | 55.28195 | 6296 ft | 290 kts | 120° |
| 2026-04-22 14:07 | 25.12235 | 55.30141 | 6300 ft | 290 kts | 120° |
| 2026-04-22 14:07 | 25.11288 | 55.32114 | 6307 ft | 289 kts | 120° |
| 2026-04-22 14:07 | 25.10363 | 55.34094 | 6430 ft | 290 kts | 117° |
| 2026-04-22 14:08 | 25.09537 | 55.36103 | 7064 ft | 292 kts | 116° |
| 2026-04-22 14:08 | 25.08699 | 55.38174 | 7676 ft | 294 kts | 116° |
| 2026-04-22 14:08 | 25.07853 | 55.40247 | 8284 ft | 297 kts | 116° |
| 2026-04-22 14:08 | 25.07011 | 55.42320 | 8811 ft | 301 kts | 116° |
| 2026-04-22 14:09 | 25.06188 | 55.44447 | 9325 ft | 306 kts | 115° |
| 2026-04-22 14:09 | 25.05348 | 55.46653 | 9207 ft | 312 kts | 115° |
| 2026-04-22 14:09 | 25.04508 | 55.48850 | 9156 ft | 306 kts | 115° |
| 2026-04-22 14:09 | 25.03694 | 55.50968 | 9135 ft | 300 kts | 115° |
| 2026-04-22 14:10 | 25.02877 | 55.53082 | 9134 ft | 299 kts | 115° |
| 2026-04-22 14:10 | 25.02063 | 55.55184 | 9444 ft | 301 kts | 116° |
| 2026-04-22 14:10 | 25.01108 | 55.57267 | 9918 ft | 305 kts | 122° |
| 2026-04-22 14:10 | 24.99984 | 55.59296 | 10349 ft | 315 kts | 124° |
| 2026-04-22 14:11 | 24.98791 | 55.61397 | 10492 ft | 335 kts | 123° |
| 2026-04-22 14:11 | 24.97529 | 55.63665 | 10650 ft | 355 kts | 123° |
| 2026-04-22 14:11 | 24.96233 | 55.66043 | 10816 ft | 375 kts | 122° |
| 2026-04-22 14:11 | 24.94863 | 55.68572 | 11158 ft | 388 kts | 122° |
| 2026-04-22 14:12 | 24.93435 | 55.71111 | 11682 ft | 396 kts | 125° |
| 2026-04-22 14:12 | 24.91813 | 55.73606 | 12407 ft | 399 kts | 128° |
| 2026-04-22 14:12 | 24.90146 | 55.76040 | 13173 ft | 402 kts | 128° |
| 2026-04-22 14:12 | 24.88441 | 55.78535 | 13894 ft | 406 kts | 128° |
| 2026-04-22 14:13 | 24.86747 | 55.81061 | 14592 ft | 411 kts | 128° |
| 2026-04-22 14:13 | 24.85065 | 55.83590 | 14802 ft | 415 kts | 128° |
| 2026-04-22 14:13 | 24.83349 | 55.86171 | 14789 ft | 414 kts | 128° |
| 2026-04-22 14:13 | 24.81652 | 55.88696 | 14791 ft | 413 kts | 128° |
| 2026-04-22 14:14 | 24.79953 | 55.91221 | 14991 ft | 415 kts | 128° |
| 2026-04-22 14:14 | 24.78203 | 55.93785 | 15600 ft | 416 kts | 130° |
| 2026-04-22 14:14 | 24.76238 | 55.96141 | 16174 ft | 419 kts | 139° |
| 2026-04-22 14:14 | 24.74071 | 55.98256 | 16833 ft | 422 kts | 141° |
| 2026-04-22 14:15 | 24.71843 | 56.00400 | 17520 ft | 425 kts | 140° |
| 2026-04-22 14:15 | 24.69647 | 56.02606 | 18162 ft | 429 kts | 139° |
| 2026-04-22 14:15 | 24.67473 | 56.04840 | 18764 ft | 433 kts | 139° |
| 2026-04-22 14:15 | 24.65257 | 56.07121 | 19307 ft | 438 kts | 139° |
| 2026-04-22 14:16 | 24.63013 | 56.09423 | 19845 ft | 443 kts | 139° |
| 2026-04-22 14:16 | 24.60740 | 56.11749 | 20378 ft | 447 kts | 139° |
| 2026-04-22 14:16 | 24.58465 | 56.14082 | 20939 ft | 452 kts | 139° |
| 2026-04-22 14:16 | 24.56227 | 56.16504 | 21449 ft | 457 kts | 134° |
| 2026-04-22 14:17 | 24.54115 | 56.19157 | 21904 ft | 462 kts | 132° |
| 2026-04-22 14:17 | 24.52018 | 56.21877 | 22383 ft | 466 kts | 131° |
| 2026-04-22 14:17 | 24.49939 | 56.24583 | 22874 ft | 470 kts | 132° |
| 2026-04-22 14:17 | 24.47814 | 56.27329 | 23350 ft | 473 kts | 132° |
| 2026-04-22 14:18 | 24.45656 | 56.30095 | 23793 ft | 477 kts | 132° |
| 2026-04-22 14:18 | 24.43471 | 56.32882 | 24218 ft | 481 kts | 132° |
| 2026-04-22 14:18 | 24.41302 | 56.35636 | 24612 ft | 484 kts | 132° |
| 2026-04-22 14:18 | 24.39071 | 56.38466 | 25003 ft | 488 kts | 133° |
| 2026-04-22 14:19 | 24.36860 | 56.41271 | 25402 ft | 492 kts | 133° |
| 2026-04-22 14:19 | 24.34610 | 56.44126 | 25812 ft | 495 kts | 133° |
| 2026-04-22 14:19 | 24.32340 | 56.47006 | 26202 ft | 499 kts | 133° |
| 2026-04-22 14:19 | 24.30083 | 56.49876 | 26601 ft | 502 kts | 132° |
| 2026-04-22 14:20 | 24.25804 | 56.56057 | 27309 ft | 509 kts | 127° |
| 2026-04-22 14:20 | 24.23762 | 56.59208 | 27668 ft | 512 kts | 127° |
| 2026-04-22 14:20 | 24.21677 | 56.62428 | 27991 ft | 515 kts | 127° |
| 2026-04-22 14:21 | 24.18189 | 56.67748 | 28486 ft | 521 kts | 128° |
| 2026-04-22 14:21 | 24.15343 | 56.72035 | 28891 ft | 524 kts | 128° |
| 2026-04-22 14:22 | 24.11036 | 56.78496 | 29613 ft | 525 kts | 128° |
| 2026-04-22 14:22 | 24.09606 | 56.80642 | 29890 ft | 525 kts | 128° |
| 2026-04-22 14:22 | 24.03993 | 56.87538 | 30564 ft | 520 kts | 148° |
| 2026-04-22 14:23 | 24.01928 | 56.88959 | 30756 ft | 517 kts | 155° |
| 2026-04-22 14:23 | 23.98685 | 56.90517 | 31068 ft | 512 kts | 166° |
| 2026-04-22 14:23 | 23.95235 | 56.91461 | 31236 ft | 510 kts | 171° |
| 2026-04-22 14:23 | 23.91777 | 56.92308 | 31412 ft | 514 kts | 171° |
| 2026-04-22 14:24 | 23.88287 | 56.93183 | 31800 ft | 512 kts | 171° |
| 2026-04-22 14:24 | 23.84809 | 56.94082 | 32182 ft | 511 kts | 171° |
| 2026-04-22 14:24 | 23.81390 | 56.94984 | 32483 ft | 512 kts | 171° |
| 2026-04-22 14:24 | 23.77921 | 56.95912 | 32750 ft | 513 kts | 171° |
| 2026-04-22 14:25 | 23.74435 | 56.96849 | 33022 ft | 513 kts | 171° |
| 2026-04-22 14:25 | 23.71001 | 56.97773 | 33298 ft | 513 kts | 171° |
| 2026-04-22 14:25 | 23.67508 | 56.98712 | 33542 ft | 515 kts | 171° |
| 2026-04-22 14:25 | 23.64058 | 56.99635 | 33693 ft | 517 kts | 171° |
| 2026-04-22 14:26 | 23.60533 | 57.00577 | 33754 ft | 519 kts | 171° |
| 2026-04-22 14:26 | 23.53539 | 57.02446 | 33758 ft | 516 kts | 171° |
| 2026-04-22 14:27 | 23.46604 | 57.04301 | 33760 ft | 513 kts | 171° |
| 2026-04-22 14:27 | 23.39609 | 57.05819 | 33763 ft | 505 kts | 181° |
| 2026-04-22 14:28 | 23.32690 | 57.05617 | 33781 ft | 495 kts | 194° |
| 2026-04-22 14:28 | 23.25977 | 57.04054 | 33775 ft | 492 kts | 199° |
| 2026-04-22 14:29 | 23.19283 | 57.02409 | 33782 ft | 494 kts | 198° |
| 2026-04-22 14:29 | 23.12577 | 57.00826 | 33770 ft | 496 kts | 198° |
| 2026-04-22 14:30 | 23.05815 | 56.99250 | 33764 ft | 496 kts | 198° |
| 2026-04-22 14:30 | 22.99073 | 56.97672 | 33776 ft | 497 kts | 198° |
| 2026-04-22 14:31 | 22.92335 | 56.96064 | 33767 ft | 497 kts | 198° |
| 2026-04-22 14:31 | 22.85632 | 56.94242 | 33755 ft | 485 kts | 210° |
| 2026-04-22 14:31 | 22.82850 | 56.92395 | 33784 ft | 470 kts | 226° |
| 2026-04-22 14:32 | 22.80594 | 56.89856 | 33753 ft | 460 kts | 239° |
| 2026-04-22 14:32 | 22.77557 | 56.83893 | 33779 ft | 453 kts | 248° |
| 2026-04-22 14:33 | 22.74734 | 56.77784 | 33779 ft | 457 kts | 248° |
| 2026-04-22 14:33 | 22.71824 | 56.71617 | 33780 ft | 459 kts | 247° |
| 2026-04-22 14:34 | 22.68889 | 56.65499 | 33770 ft | 460 kts | 247° |
| 2026-04-22 14:34 | 22.65921 | 56.59338 | 33765 ft | 459 kts | 247° |
| 2026-04-22 14:35 | 22.62985 | 56.53241 | 33785 ft | 457 kts | 247° |
| 2026-04-22 14:35 | 22.60055 | 56.47159 | 33787 ft | 456 kts | 247° |
| 2026-04-22 14:36 | 22.57128 | 56.41088 | 33782 ft | 454 kts | 247° |
| 2026-04-22 14:36 | 22.54213 | 56.35056 | 33786 ft | 453 kts | 247° |
| 2026-04-22 14:37 | 22.51269 | 56.28989 | 33790 ft | 453 kts | 247° |
| 2026-04-22 14:37 | 22.48347 | 56.22974 | 33797 ft | 453 kts | 247° |
| 2026-04-22 14:38 | 22.45423 | 56.16957 | 33797 ft | 453 kts | 247° |
| 2026-04-22 14:38 | 22.42498 | 56.10941 | 33796 ft | 453 kts | 247° |
| 2026-04-22 14:39 | 22.39564 | 56.04916 | 33796 ft | 454 kts | 247° |
| 2026-04-22 14:39 | 22.36620 | 55.98885 | 33797 ft | 454 kts | 247° |
| 2026-04-22 14:40 | 22.32175 | 55.89848 | 33794 ft | 454 kts | 247° |
| 2026-04-22 14:40 | 22.29203 | 55.83810 | 33795 ft | 454 kts | 247° |
| 2026-04-22 14:41 | 22.26238 | 55.77788 | 33795 ft | 454 kts | 247° |
| 2026-04-22 14:41 | 22.23281 | 55.71784 | 33804 ft | 454 kts | 247° |
| 2026-04-22 14:42 | 22.20326 | 55.65782 | 33805 ft | 453 kts | 247° |
| 2026-04-22 14:42 | 22.17435 | 55.59713 | 33801 ft | 450 kts | 252° |
| 2026-04-22 14:43 | 22.15625 | 55.53328 | 33814 ft | 444 kts | 262° |
| 2026-04-22 14:43 | 22.14839 | 55.46782 | 33814 ft | 440 kts | 268° |
| 2026-04-22 14:44 | 22.14337 | 55.40210 | 33805 ft | 441 kts | 268° |
| 2026-04-22 14:44 | 22.13822 | 55.33635 | 33808 ft | 441 kts | 268° |
| 2026-04-22 14:45 | 22.13288 | 55.27063 | 33804 ft | 441 kts | 268° |
| 2026-04-22 14:45 | 22.12743 | 55.20454 | 33808 ft | 440 kts | 268° |
| 2026-04-22 14:46 | 22.12195 | 55.13896 | 33803 ft | 440 kts | 268° |
| 2026-04-22 14:46 | 22.11644 | 55.07349 | 33805 ft | 440 kts | 267° |
| 2026-04-22 14:47 | 22.11091 | 55.00787 | 33806 ft | 440 kts | 268° |
| 2026-04-22 14:47 | 22.10534 | 54.94208 | 33814 ft | 439 kts | 267° |
| 2026-04-22 14:48 | 22.09974 | 54.87657 | 33806 ft | 439 kts | 267° |
| 2026-04-22 14:48 | 22.09416 | 54.81097 | 33800 ft | 438 kts | 267° |
| 2026-04-22 14:49 | 22.08856 | 54.74572 | 33810 ft | 438 kts | 267° |
| 2026-04-22 14:49 | 22.08294 | 54.68062 | 33805 ft | 437 kts | 267° |
| 2026-04-22 14:50 | 22.07728 | 54.61527 | 33803 ft | 437 kts | 267° |
| 2026-04-22 14:50 | 22.07159 | 54.55004 | 33799 ft | 437 kts | 267° |
| 2026-04-22 14:51 | 22.06592 | 54.48522 | 33806 ft | 437 kts | 267° |
| 2026-04-22 14:51 | 22.06019 | 54.42007 | 33806 ft | 437 kts | 267° |
| 2026-04-22 14:52 | 22.05441 | 54.35461 | 33807 ft | 436 kts | 267° |
| 2026-04-22 14:52 | 22.04879 | 54.29132 | 33803 ft | 436 kts | 267° |
| 2026-04-22 14:53 | 22.04301 | 54.22638 | 33808 ft | 436 kts | 267° |
| 2026-04-22 14:53 | 22.03716 | 54.16110 | 33805 ft | 436 kts | 267° |
| 2026-04-22 14:54 | 22.03133 | 54.09616 | 33809 ft | 436 kts | 267° |
| 2026-04-22 14:54 | 22.02549 | 54.03143 | 33805 ft | 436 kts | 267° |
| 2026-04-22 14:55 | 22.01959 | 53.96637 | 33806 ft | 436 kts | 267° |
| 2026-04-22 14:55 | 22.01365 | 53.90125 | 33807 ft | 436 kts | 267° |
| 2026-04-22 14:56 | 22.00769 | 53.83613 | 33799 ft | 436 kts | 267° |
| 2026-04-22 14:56 | 22.00170 | 53.77111 | 33808 ft | 436 kts | 266° |
| 2026-04-22 14:57 | 21.99568 | 53.70590 | 33805 ft | 436 kts | 267° |
| 2026-04-22 14:57 | 21.98968 | 53.64118 | 33798 ft | 436 kts | 266° |
| 2026-04-22 14:58 | 21.98364 | 53.57622 | 33809 ft | 436 kts | 266° |
| 2026-04-22 14:58 | 21.97754 | 53.51096 | 33803 ft | 436 kts | 266° |
| 2026-04-22 14:59 | 21.97145 | 53.44611 | 33807 ft | 437 kts | 266° |
| 2026-04-22 14:59 | 21.96531 | 53.38111 | 33807 ft | 437 kts | 266° |
| 2026-04-22 15:00 | 21.95915 | 53.31597 | 33808 ft | 438 kts | 266° |
| 2026-04-22 15:00 | 21.95295 | 53.25093 | 33806 ft | 438 kts | 266° |
| 2026-04-22 15:01 | 21.94669 | 53.18548 | 33804 ft | 437 kts | 266° |
| 2026-04-22 15:01 | 21.94047 | 53.12058 | 33804 ft | 436 kts | 266° |
| 2026-04-22 15:02 | 21.93421 | 53.05567 | 33806 ft | 436 kts | 266° |
| 2026-04-22 15:02 | 21.92794 | 52.99090 | 33807 ft | 436 kts | 266° |
| 2026-04-22 15:03 | 21.92163 | 52.92579 | 33803 ft | 436 kts | 266° |
| 2026-04-22 15:03 | 21.91531 | 52.86095 | 33805 ft | 435 kts | 266° |
| 2026-04-22 15:04 | 21.90896 | 52.79611 | 33816 ft | 435 kts | 266° |
| 2026-04-22 15:04 | 21.90378 | 52.73134 | 33820 ft | 433 kts | 272° |
| 2026-04-22 15:05 | 21.90727 | 52.66687 | 33827 ft | 431 kts | 278° |
| 2026-04-22 15:05 | 21.91819 | 52.60342 | 33825 ft | 431 kts | 282° |
| 2026-04-22 15:06 | 21.93005 | 52.54062 | 33815 ft | 431 kts | 282° |
| 2026-04-22 15:06 | 21.94191 | 52.47705 | 33815 ft | 431 kts | 282° |
| 2026-04-22 15:07 | 21.95359 | 52.41372 | 33815 ft | 431 kts | 282° |
| 2026-04-22 15:07 | 21.96515 | 52.35051 | 33815 ft | 430 kts | 282° |
| 2026-04-22 15:08 | 21.97661 | 52.28758 | 33814 ft | 430 kts | 282° |
| 2026-04-22 15:08 | 21.98817 | 52.22404 | 33816 ft | 430 kts | 282° |
| 2026-04-22 15:09 | 21.99962 | 52.16099 | 33815 ft | 430 kts | 282° |
| 2026-04-22 15:09 | 22.01106 | 52.09781 | 33813 ft | 430 kts | 282° |
| 2026-04-22 15:10 | 22.02250 | 52.03459 | 33817 ft | 431 kts | 282° |
| 2026-04-22 15:10 | 22.03396 | 51.97102 | 33814 ft | 431 kts | 282° |
| 2026-04-22 15:11 | 22.04533 | 51.90792 | 33814 ft | 430 kts | 282° |
| 2026-04-22 15:11 | 22.05669 | 51.84463 | 33816 ft | 430 kts | 282° |
| 2026-04-22 15:12 | 22.06805 | 51.78128 | 33815 ft | 430 kts | 282° |
| 2026-04-22 15:12 | 22.07938 | 51.71799 | 33813 ft | 430 kts | 282° |
| 2026-04-22 15:13 | 22.09064 | 51.65473 | 33815 ft | 430 kts | 282° |
| 2026-04-22 15:13 | 22.10191 | 51.59127 | 33821 ft | 430 kts | 282° |
| 2026-04-22 15:14 | 22.11313 | 51.52815 | 33822 ft | 430 kts | 282° |
| 2026-04-22 15:14 | 22.12433 | 51.46485 | 33812 ft | 429 kts | 282° |
| 2026-04-22 15:15 | 22.13552 | 51.40156 | 33815 ft | 429 kts | 282° |
| 2026-04-22 15:15 | 22.14663 | 51.33846 | 33816 ft | 429 kts | 281° |
| 2026-04-22 15:16 | 22.15592 | 51.28570 | 33816 ft | 429 kts | 281° |
| 2026-04-22 15:16 | 22.16699 | 51.22272 | 33827 ft | 428 kts | 281° |
| 2026-04-22 15:17 | 22.17808 | 51.15931 | 33831 ft | 428 kts | 281° |
| 2026-04-22 15:17 | 22.18903 | 51.09648 | 33826 ft | 427 kts | 281° |
| 2026-04-22 15:18 | 22.19998 | 51.03366 | 33822 ft | 427 kts | 281° |
| 2026-04-22 15:18 | 22.21093 | 50.97077 | 33826 ft | 426 kts | 281° |
| 2026-04-22 15:19 | 22.22180 | 50.90804 | 33822 ft | 426 kts | 281° |
| 2026-04-22 15:19 | 22.23267 | 50.84526 | 33826 ft | 426 kts | 281° |
| 2026-04-22 15:20 | 22.24348 | 50.78256 | 33822 ft | 425 kts | 281° |
| 2026-04-22 15:20 | 22.25430 | 50.71982 | 33824 ft | 425 kts | 281° |
| 2026-04-22 15:21 | 22.26504 | 50.65722 | 33823 ft | 424 kts | 281° |
| 2026-04-22 15:21 | 22.27575 | 50.59474 | 33824 ft | 423 kts | 281° |
| 2026-04-22 15:22 | 22.28649 | 50.53199 | 33827 ft | 423 kts | 281° |
| 2026-04-22 15:22 | 22.29711 | 50.46969 | 33824 ft | 423 kts | 281° |
| 2026-04-22 15:23 | 22.30778 | 50.40698 | 33823 ft | 423 kts | 281° |
| 2026-04-22 15:23 | 22.31835 | 50.34476 | 33825 ft | 423 kts | 281° |
| 2026-04-22 15:24 | 22.32890 | 50.28245 | 33823 ft | 423 kts | 281° |
| 2026-04-22 15:24 | 22.33950 | 50.21962 | 33826 ft | 423 kts | 281° |
| 2026-04-22 15:25 | 22.34998 | 50.15745 | 33822 ft | 423 kts | 281° |
| 2026-04-22 15:25 | 22.36052 | 50.09474 | 33825 ft | 423 kts | 281° |
| 2026-04-22 15:26 | 22.37097 | 50.03251 | 33823 ft | 423 kts | 281° |
| 2026-04-22 15:26 | 22.38146 | 49.96976 | 33825 ft | 423 kts | 280° |
| 2026-04-22 15:27 | 22.39182 | 49.90768 | 33832 ft | 422 kts | 280° |
| 2026-04-22 15:27 | 22.40222 | 49.84512 | 33831 ft | 421 kts | 280° |
| 2026-04-22 15:28 | 22.41259 | 49.78274 | 33831 ft | 421 kts | 280° |
| 2026-04-22 15:28 | 22.42289 | 49.72067 | 33836 ft | 421 kts | 280° |
| 2026-04-22 15:29 | 22.43314 | 49.65864 | 33843 ft | 421 kts | 280° |
| 2026-04-22 15:30 | 22.44856 | 49.56500 | 33841 ft | 421 kts | 280° |
| 2026-04-22 15:30 | 22.45874 | 49.50298 | 33844 ft | 421 kts | 280° |
| 2026-04-22 15:31 | 22.46898 | 49.44046 | 33843 ft | 421 kts | 280° |
| 2026-04-22 15:31 | 22.47915 | 49.37831 | 33856 ft | 421 kts | 280° |
| 2026-04-22 15:32 | 22.48936 | 49.31564 | 33863 ft | 422 kts | 280° |
| 2026-04-22 15:32 | 22.49951 | 49.25323 | 33862 ft | 422 kts | 280° |
| 2026-04-22 15:33 | 22.50962 | 49.19091 | 33862 ft | 423 kts | 280° |
| 2026-04-22 15:33 | 22.51975 | 49.12816 | 33862 ft | 423 kts | 280° |
| 2026-04-22 15:34 | 22.52982 | 49.06578 | 33860 ft | 422 kts | 280° |
| 2026-04-22 15:34 | 22.53993 | 49.00303 | 33861 ft | 422 kts | 280° |
| 2026-04-22 15:35 | 22.54994 | 48.94062 | 33861 ft | 422 kts | 280° |
| 2026-04-22 15:35 | 22.55999 | 48.87787 | 33861 ft | 422 kts | 280° |
| 2026-04-22 15:36 | 22.56994 | 48.81554 | 33861 ft | 422 kts | 280° |
| 2026-04-22 15:36 | 22.57986 | 48.75332 | 33859 ft | 421 kts | 280° |
| 2026-04-22 15:37 | 22.58983 | 48.69064 | 33862 ft | 421 kts | 279° |
| 2026-04-22 15:37 | 22.59970 | 48.62838 | 33862 ft | 421 kts | 279° |
| 2026-04-22 15:38 | 22.60956 | 48.56598 | 33858 ft | 421 kts | 279° |
| 2026-04-22 15:38 | 22.62435 | 48.47213 | 33861 ft | 421 kts | 279° |
| 2026-04-22 15:39 | 22.63413 | 48.40987 | 33860 ft | 421 kts | 279° |
| 2026-04-22 15:39 | 22.64391 | 48.34751 | 33861 ft | 421 kts | 279° |
| 2026-04-22 15:40 | 22.65370 | 48.28471 | 33863 ft | 422 kts | 279° |
| 2026-04-22 15:40 | 22.66343 | 48.22225 | 33860 ft | 422 kts | 279° |
| 2026-04-22 15:41 | 22.67320 | 48.15945 | 33864 ft | 422 kts | 279° |
| 2026-04-22 15:41 | 22.68266 | 48.09846 | 33869 ft | 422 kts | 279° |
| 2026-04-22 15:42 | 22.69215 | 48.03556 | 33872 ft | 423 kts | 277° |
| 2026-04-22 15:42 | 22.69777 | 47.97242 | 33871 ft | 422 kts | 275° |
| 2026-04-22 15:43 | 22.70286 | 47.90915 | 33868 ft | 422 kts | 275° |
| 2026-04-22 15:43 | 22.70802 | 47.84610 | 33872 ft | 421 kts | 275° |
| 2026-04-22 15:44 | 22.71321 | 47.78293 | 33870 ft | 421 kts | 275° |
| 2026-04-22 15:44 | 22.71838 | 47.72002 | 33869 ft | 420 kts | 275° |
| 2026-04-22 15:45 | 22.72357 | 47.65686 | 33871 ft | 420 kts | 275° |
| 2026-04-22 15:45 | 22.72869 | 47.59392 | 33872 ft | 420 kts | 275° |
| 2026-04-22 15:46 | 22.73380 | 47.53084 | 33873 ft | 420 kts | 275° |
| 2026-04-22 15:46 | 22.73887 | 47.46797 | 33879 ft | 420 kts | 275° |
| 2026-04-22 15:47 | 22.74392 | 47.40507 | 33881 ft | 420 kts | 275° |
| 2026-04-22 15:47 | 22.74897 | 47.34181 | 33880 ft | 420 kts | 275° |
| 2026-04-22 15:48 | 22.75397 | 47.27874 | 33881 ft | 420 kts | 275° |
| 2026-04-22 15:48 | 22.75896 | 47.21568 | 33879 ft | 421 kts | 275° |
| 2026-04-22 15:49 | 22.76393 | 47.15257 | 33880 ft | 421 kts | 275° |
| 2026-04-22 15:49 | 22.76899 | 47.08950 | 33879 ft | 420 kts | 275° |
| 2026-04-22 15:50 | 22.77405 | 47.02648 | 33870 ft | 420 kts | 275° |
| 2026-04-22 15:50 | 22.77905 | 46.96345 | 33870 ft | 420 kts | 275° |
| 2026-04-22 15:51 | 22.78401 | 46.90056 | 33870 ft | 420 kts | 275° |
| 2026-04-22 15:51 | 22.78894 | 46.83767 | 33871 ft | 419 kts | 275° |
| 2026-04-22 15:52 | 22.79387 | 46.77457 | 33868 ft | 419 kts | 275° |
| 2026-04-22 15:52 | 22.79875 | 46.71177 | 33871 ft | 419 kts | 275° |
| 2026-04-22 15:53 | 22.80366 | 46.64845 | 33873 ft | 420 kts | 275° |
| 2026-04-22 15:53 | 22.80850 | 46.58557 | 33867 ft | 420 kts | 275° |
| 2026-04-22 15:54 | 22.81330 | 46.52261 | 33865 ft | 421 kts | 275° |
| 2026-04-22 15:54 | 22.81814 | 46.45912 | 33862 ft | 421 kts | 275° |
| 2026-04-22 15:55 | 22.82292 | 46.39616 | 33860 ft | 421 kts | 275° |
| 2026-04-22 15:55 | 22.82766 | 46.33258 | 33861 ft | 421 kts | 275° |
| 2026-04-22 15:56 | 22.83232 | 46.26936 | 33863 ft | 421 kts | 275° |
| 2026-04-22 15:56 | 22.83693 | 46.20645 | 33860 ft | 421 kts | 274° |
| 2026-04-22 15:57 | 22.84153 | 46.14333 | 33860 ft | 420 kts | 274° |
| 2026-04-22 15:57 | 22.84614 | 46.07988 | 33859 ft | 421 kts | 274° |
| 2026-04-22 15:58 | 22.85070 | 46.01672 | 33857 ft | 420 kts | 274° |
| 2026-04-22 15:58 | 22.85521 | 45.95367 | 33861 ft | 420 kts | 274° |
| 2026-04-22 15:59 | 22.85973 | 45.89057 | 33863 ft | 420 kts | 274° |
| 2026-04-22 15:59 | 22.86423 | 45.82738 | 33860 ft | 421 kts | 274° |
| 2026-04-22 16:00 | 22.86869 | 45.76422 | 33861 ft | 421 kts | 274° |
| 2026-04-22 16:00 | 22.87314 | 45.70095 | 33862 ft | 420 kts | 274° |
| 2026-04-22 16:01 | 22.87754 | 45.63787 | 33862 ft | 420 kts | 274° |
| 2026-04-22 16:01 | 22.88191 | 45.57469 | 33861 ft | 420 kts | 274° |
| 2026-04-22 16:02 | 22.88630 | 45.51122 | 33867 ft | 420 kts | 274° |
| 2026-04-22 16:02 | 22.89063 | 45.44812 | 33870 ft | 420 kts | 274° |
| 2026-04-22 16:03 | 22.89493 | 45.38514 | 33871 ft | 420 kts | 274° |
| 2026-04-22 16:03 | 22.89924 | 45.32163 | 33872 ft | 420 kts | 274° |
| 2026-04-22 16:04 | 22.90349 | 45.25855 | 33870 ft | 420 kts | 274° |
| 2026-04-22 16:04 | 22.90772 | 45.19541 | 33868 ft | 420 kts | 274° |
| 2026-04-22 16:05 | 22.91193 | 45.13242 | 33876 ft | 420 kts | 274° |
| 2026-04-22 16:05 | 22.91610 | 45.06935 | 33878 ft | 419 kts | 274° |
| 2026-04-22 16:06 | 22.92028 | 45.00610 | 33880 ft | 419 kts | 274° |
| 2026-04-22 16:06 | 22.92375 | 44.95346 | 33884 ft | 419 kts | 274° |
| 2026-04-22 16:07 | 22.92787 | 44.89032 | 33881 ft | 419 kts | 274° |
| 2026-04-22 16:07 | 22.93196 | 44.82728 | 33883 ft | 420 kts | 273° |
| 2026-04-22 16:08 | 22.93603 | 44.76420 | 33882 ft | 420 kts | 273° |
| 2026-04-22 16:08 | 22.94051 | 44.70100 | 33879 ft | 421 kts | 276° |
| 2026-04-22 16:09 | 22.95198 | 44.63879 | 33880 ft | 422 kts | 283° |
| 2026-04-22 16:09 | 22.97037 | 44.57828 | 33895 ft | 423 kts | 286° |
| 2026-04-22 16:10 | 22.98939 | 44.51748 | 33885 ft | 423 kts | 286° |
| 2026-04-22 16:10 | 23.00806 | 44.45726 | 33884 ft | 423 kts | 285° |
| 2026-04-22 16:11 | 23.02663 | 44.39704 | 33887 ft | 422 kts | 285° |
| 2026-04-22 16:11 | 23.04529 | 44.33636 | 33886 ft | 422 kts | 285° |
| 2026-04-22 16:12 | 23.06385 | 44.27598 | 33886 ft | 422 kts | 285° |
| 2026-04-22 16:12 | 23.08207 | 44.21656 | 33885 ft | 421 kts | 285° |
| 2026-04-22 16:13 | 23.10050 | 44.15637 | 33889 ft | 421 kts | 285° |
| 2026-04-22 16:13 | 23.11904 | 44.09578 | 33897 ft | 421 kts | 285° |
| 2026-04-22 16:14 | 23.13735 | 44.03577 | 33885 ft | 420 kts | 285° |
| 2026-04-22 16:14 | 23.15579 | 43.97542 | 33889 ft | 420 kts | 285° |
| 2026-04-22 16:15 | 23.17403 | 43.91539 | 33907 ft | 420 kts | 285° |
| 2026-04-22 16:15 | 23.19236 | 43.85500 | 33895 ft | 421 kts | 285° |
| 2026-04-22 16:16 | 23.21071 | 43.79453 | 33896 ft | 422 kts | 285° |
| 2026-04-22 16:16 | 23.22899 | 43.73423 | 33895 ft | 422 kts | 285° |
| 2026-04-22 16:17 | 23.24731 | 43.67369 | 33885 ft | 422 kts | 285° |
| 2026-04-22 16:17 | 23.26556 | 43.61329 | 33885 ft | 421 kts | 285° |
| 2026-04-22 16:18 | 23.28388 | 43.55253 | 33888 ft | 420 kts | 285° |
| 2026-04-22 16:18 | 23.30197 | 43.49235 | 33893 ft | 420 kts | 285° |
| 2026-04-22 16:19 | 23.32011 | 43.43191 | 33894 ft | 421 kts | 285° |
| 2026-04-22 16:19 | 23.33806 | 43.37198 | 33896 ft | 420 kts | 285° |
| 2026-04-22 16:20 | 23.35617 | 43.31149 | 33910 ft | 420 kts | 285° |
| 2026-04-22 16:20 | 23.37422 | 43.25101 | 33906 ft | 421 kts | 285° |
| 2026-04-22 16:21 | 23.39227 | 43.19049 | 33908 ft | 421 kts | 285° |
| 2026-04-22 16:21 | 23.41042 | 43.12954 | 33911 ft | 422 kts | 285° |
| 2026-04-22 16:22 | 23.43739 | 43.03830 | 33906 ft | 423 kts | 284° |
| 2026-04-22 16:23 | 23.46433 | 42.94693 | 33905 ft | 424 kts | 284° |
| 2026-04-22 16:23 | 23.48238 | 42.88561 | 33908 ft | 424 kts | 284° |
| 2026-04-22 16:24 | 23.50933 | 42.79386 | 33906 ft | 423 kts | 284° |
| 2026-04-22 16:25 | 23.52723 | 42.73285 | 33904 ft | 424 kts | 284° |
| 2026-04-22 16:25 | 23.55424 | 42.64144 | 33906 ft | 424 kts | 284° |
| 2026-04-22 16:26 | 23.57231 | 42.58021 | 33903 ft | 424 kts | 284° |
| 2026-04-22 16:26 | 23.59031 | 42.51903 | 33917 ft | 424 kts | 284° |
| 2026-04-22 16:27 | 23.60825 | 42.45794 | 33928 ft | 424 kts | 284° |
| 2026-04-22 16:27 | 23.62617 | 42.39684 | 33927 ft | 424 kts | 284° |
| 2026-04-22 16:28 | 23.64408 | 42.33570 | 33926 ft | 424 kts | 284° |
| 2026-04-22 16:28 | 23.66196 | 42.27443 | 33925 ft | 424 kts | 284° |
| 2026-04-22 16:29 | 23.67968 | 42.21302 | 33928 ft | 424 kts | 284° |
| 2026-04-22 16:29 | 23.69732 | 42.15169 | 33921 ft | 424 kts | 284° |
| 2026-04-22 16:30 | 23.71490 | 42.09051 | 33918 ft | 424 kts | 284° |
| 2026-04-22 16:30 | 23.73259 | 42.02889 | 33915 ft | 424 kts | 283° |
| 2026-04-22 16:31 | 23.75014 | 41.96773 | 33917 ft | 423 kts | 284° |
| 2026-04-22 16:31 | 23.76794 | 41.90660 | 33917 ft | 423 kts | 284° |
| 2026-04-22 16:32 | 23.78579 | 41.84524 | 33917 ft | 423 kts | 284° |
| 2026-04-22 16:32 | 23.80343 | 41.78439 | 33918 ft | 422 kts | 284° |
| 2026-04-22 16:33 | 23.82112 | 41.72302 | 33914 ft | 422 kts | 283° |
| 2026-04-22 16:33 | 23.83871 | 41.66161 | 33918 ft | 423 kts | 284° |
| 2026-04-22 16:34 | 23.85630 | 41.60057 | 33907 ft | 423 kts | 283° |
| 2026-04-22 16:34 | 23.87377 | 41.53919 | 33927 ft | 423 kts | 283° |
| 2026-04-22 16:35 | 23.89132 | 41.47782 | 33931 ft | 425 kts | 283° |
| 2026-04-22 16:35 | 23.90889 | 41.41635 | 33925 ft | 425 kts | 283° |
| 2026-04-22 16:36 | 23.92645 | 41.35450 | 33925 ft | 424 kts | 283° |
| 2026-04-22 16:36 | 23.94387 | 41.29314 | 33931 ft | 424 kts | 284° |
| 2026-04-22 16:37 | 23.96125 | 41.23153 | 33919 ft | 425 kts | 283° |
| 2026-04-22 16:37 | 23.97878 | 41.17001 | 33920 ft | 425 kts | 284° |
| 2026-04-22 16:38 | 23.99613 | 41.10842 | 33922 ft | 424 kts | 283° |
| 2026-04-22 16:38 | 24.01343 | 41.04685 | 33919 ft | 421 kts | 283° |
| 2026-04-22 16:39 | 24.03055 | 40.98610 | 33907 ft | 417 kts | 283° |
| 2026-04-22 16:39 | 24.04762 | 40.92537 | 33915 ft | 416 kts | 283° |
| 2026-04-22 16:40 | 24.05602 | 40.89535 | 34192 ft | 415 kts | 283° |
| 2026-04-22 16:40 | 24.06449 | 40.86513 | 34552 ft | 413 kts | 283° |
| 2026-04-22 16:40 | 24.08126 | 40.80516 | 35079 ft | 413 kts | 283° |
| 2026-04-22 16:41 | 24.08969 | 40.77498 | 35336 ft | 413 kts | 283° |
| 2026-04-22 16:41 | 24.09798 | 40.74525 | 35599 ft | 412 kts | 283° |
| 2026-04-22 16:41 | 24.10638 | 40.71510 | 35801 ft | 413 kts | 283° |
| 2026-04-22 16:42 | 24.12314 | 40.65495 | 35886 ft | 414 kts | 283° |
| 2026-04-22 16:42 | 24.13985 | 40.59490 | 35886 ft | 412 kts | 283° |
| 2026-04-22 16:43 | 24.15673 | 40.53486 | 35888 ft | 411 kts | 285° |
| 2026-04-22 16:43 | 24.17967 | 40.47720 | 35862 ft | 417 kts | 292° |
| 2026-04-22 16:44 | 24.20689 | 40.42111 | 35871 ft | 417 kts | 292° |
| 2026-04-22 16:44 | 24.23380 | 40.36504 | 35855 ft | 417 kts | 292° |
| 2026-04-22 16:45 | 24.26018 | 40.30985 | 35858 ft | 418 kts | 292° |
| 2026-04-22 16:45 | 24.28692 | 40.25377 | 35858 ft | 418 kts | 292° |
| 2026-04-22 16:46 | 24.31385 | 40.19726 | 35859 ft | 418 kts | 292° |
| 2026-04-22 16:46 | 24.34076 | 40.14069 | 35862 ft | 418 kts | 292° |
| 2026-04-22 16:47 | 24.36762 | 40.08417 | 35856 ft | 418 kts | 292° |
| 2026-04-22 16:47 | 24.39005 | 40.03691 | 35862 ft | 418 kts | 292° |
| 2026-04-22 16:48 | 24.42141 | 39.97082 | 35856 ft | 419 kts | 292° |
| 2026-04-22 16:48 | 24.44774 | 39.91521 | 35861 ft | 418 kts | 292° |
| 2026-04-22 16:49 | 24.47468 | 39.85828 | 35858 ft | 418 kts | 292° |
| 2026-04-22 16:49 | 24.50144 | 39.80163 | 35857 ft | 418 kts | 292° |
| 2026-04-22 16:50 | 24.52887 | 39.74533 | 35855 ft | 422 kts | 297° |
| 2026-04-22 16:50 | 24.56623 | 39.69487 | 35856 ft | 431 kts | 306° |
| 2026-04-22 16:51 | 24.61221 | 39.65155 | 35877 ft | 440 kts | 315° |
| 2026-04-22 16:51 | 24.66208 | 39.61241 | 35853 ft | 440 kts | 316° |
| 2026-04-22 16:52 | 24.71165 | 39.57354 | 35845 ft | 437 kts | 315° |
| 2026-04-22 16:52 | 24.76075 | 39.53456 | 35856 ft | 435 kts | 315° |
| 2026-04-22 16:53 | 24.80983 | 39.49532 | 35849 ft | 434 kts | 315° |
| 2026-04-22 16:53 | 24.85840 | 39.45641 | 35845 ft | 432 kts | 315° |
| 2026-04-22 16:54 | 24.90678 | 39.41762 | 35850 ft | 431 kts | 315° |
| 2026-04-22 16:54 | 24.95552 | 39.37851 | 35851 ft | 431 kts | 314° |
| 2026-04-22 16:55 | 25.00404 | 39.33954 | 35853 ft | 432 kts | 314° |
| 2026-04-22 16:55 | 25.05240 | 39.30067 | 35863 ft | 432 kts | 314° |
| 2026-04-22 16:56 | 25.10116 | 39.26146 | 35847 ft | 432 kts | 314° |
| 2026-04-22 16:56 | 25.14935 | 39.22256 | 35839 ft | 431 kts | 314° |
| 2026-04-22 16:57 | 25.19673 | 39.18254 | 35842 ft | 424 kts | 308° |
| 2026-04-22 16:57 | 25.23657 | 39.13571 | 35852 ft | 415 kts | 301° |
| 2026-04-22 16:58 | 25.26440 | 39.09294 | 35841 ft | 410 kts | 296° |
| 2026-04-22 16:58 | 25.29527 | 39.03989 | 35823 ft | 411 kts | 296° |
| 2026-04-22 16:59 | 25.33119 | 38.97789 | 35854 ft | 412 kts | 296° |
| 2026-04-22 16:59 | 25.35696 | 38.93359 | 35842 ft | 413 kts | 296° |
| 2026-04-22 17:00 | 25.38834 | 38.87982 | 35839 ft | 414 kts | 296° |
| 2026-04-22 17:00 | 25.43507 | 38.79971 | 35842 ft | 414 kts | 296° |
| 2026-04-22 17:01 | 25.46630 | 38.74610 | 35830 ft | 413 kts | 296° |
| 2026-04-22 17:01 | 25.49733 | 38.69283 | 35830 ft | 412 kts | 295° |
| 2026-04-22 17:02 | 25.52816 | 38.63969 | 35840 ft | 411 kts | 296° |
| 2026-04-22 17:02 | 25.55892 | 38.58665 | 35839 ft | 411 kts | 296° |
| 2026-04-22 17:03 | 25.58994 | 38.53312 | 35846 ft | 411 kts | 296° |
| 2026-04-22 17:03 | 25.62082 | 38.47980 | 35846 ft | 412 kts | 296° |
| 2026-04-22 17:04 | 25.65093 | 38.42774 | 35843 ft | 412 kts | 296° |
| 2026-04-22 17:04 | 25.68184 | 38.37422 | 35851 ft | 412 kts | 296° |
| 2026-04-22 17:05 | 25.71263 | 38.32087 | 35844 ft | 412 kts | 296° |
| 2026-04-22 17:05 | 25.74352 | 38.26728 | 35837 ft | 412 kts | 296° |
| 2026-04-22 17:06 | 25.77415 | 38.21408 | 35845 ft | 411 kts | 295° |
| 2026-04-22 17:06 | 25.80487 | 38.16062 | 35840 ft | 411 kts | 295° |
| 2026-04-22 17:07 | 25.83573 | 38.10690 | 35842 ft | 411 kts | 295° |
| 2026-04-22 17:07 | 25.86639 | 38.05346 | 35837 ft | 411 kts | 295° |
| 2026-04-22 17:08 | 25.89708 | 37.99989 | 35833 ft | 411 kts | 295° |
| 2026-04-22 17:08 | 25.92765 | 37.94650 | 35833 ft | 409 kts | 295° |
| 2026-04-22 17:09 | 25.95808 | 37.89328 | 35844 ft | 408 kts | 295° |
| 2026-04-22 17:09 | 25.98700 | 37.83888 | 35831 ft | 404 kts | 288° |
| 2026-04-22 17:10 | 26.00652 | 37.78075 | 35841 ft | 401 kts | 283° |
| 2026-04-22 17:10 | 26.01785 | 37.72140 | 35832 ft | 400 kts | 276° |
| 2026-04-22 17:11 | 26.02584 | 37.66020 | 35819 ft | 401 kts | 276° |
| 2026-04-22 17:11 | 26.03396 | 37.59903 | 35818 ft | 402 kts | 276° |
| 2026-04-22 17:12 | 26.04235 | 37.53729 | 35815 ft | 402 kts | 276° |
| 2026-04-22 17:12 | 26.05062 | 37.47595 | 35808 ft | 402 kts | 275° |
| 2026-04-22 17:13 | 26.05881 | 37.41464 | 35820 ft | 402 kts | 275° |
| 2026-04-22 17:13 | 26.06698 | 37.35310 | 35816 ft | 403 kts | 275° |
| 2026-04-22 17:14 | 26.07512 | 37.29150 | 35812 ft | 402 kts | 275° |
| 2026-04-22 17:14 | 26.08283 | 37.23309 | 35822 ft | 402 kts | 275° |
| 2026-04-22 17:15 | 26.09095 | 37.17145 | 35812 ft | 402 kts | 275° |
| 2026-04-22 17:15 | 26.09900 | 37.10995 | 35799 ft | 402 kts | 275° |
| 2026-04-22 17:16 | 26.10704 | 37.04853 | 35807 ft | 401 kts | 275° |
| 2026-04-22 17:16 | 26.11501 | 36.98721 | 35805 ft | 401 kts | 275° |
| 2026-04-22 17:17 | 26.12297 | 36.92586 | 35804 ft | 401 kts | 275° |
| 2026-04-22 17:17 | 26.13092 | 36.86440 | 35806 ft | 400 kts | 275° |
| 2026-04-22 17:18 | 26.13881 | 36.80316 | 35804 ft | 400 kts | 275° |
| 2026-04-22 17:18 | 26.14646 | 36.74367 | 35805 ft | 400 kts | 275° |
| 2026-04-22 17:19 | 26.16213 | 36.62100 | 35806 ft | 400 kts | 275° |
| 2026-04-22 17:20 | 26.18600 | 36.50043 | 35812 ft | 408 kts | 289° |
| 2026-04-22 17:21 | 26.23485 | 36.42170 | 35812 ft | 425 kts | 305° |
| 2026-04-22 17:22 | 26.29717 | 36.35145 | 35804 ft | 424 kts | 305° |
| 2026-04-22 17:23 | 26.35870 | 36.28114 | 35802 ft | 422 kts | 305° |
| 2026-04-22 17:23 | 26.41997 | 36.21040 | 35804 ft | 421 kts | 305° |
| 2026-04-22 17:24 | 26.46068 | 36.16330 | 35805 ft | 421 kts | 305° |
| 2026-04-22 17:24 | 26.50131 | 36.11626 | 35807 ft | 421 kts | 305° |
| 2026-04-22 17:25 | 26.54053 | 36.07080 | 35805 ft | 421 kts | 305° |
| 2026-04-22 17:25 | 26.58112 | 36.02369 | 35813 ft | 422 kts | 305° |
| 2026-04-22 17:26 | 26.62196 | 35.97626 | 35814 ft | 422 kts | 305° |
| 2026-04-22 17:26 | 26.66266 | 35.92894 | 35816 ft | 423 kts | 305° |
| 2026-04-22 17:27 | 26.70340 | 35.88149 | 35816 ft | 424 kts | 305° |
| 2026-04-22 17:27 | 26.74305 | 35.83528 | 35814 ft | 426 kts | 305° |
| 2026-04-22 17:28 | 26.78405 | 35.78749 | 35814 ft | 427 kts | 305° |
| 2026-04-22 17:28 | 26.82510 | 35.73955 | 35821 ft | 427 kts | 305° |
| 2026-04-22 17:29 | 26.86610 | 35.69163 | 35822 ft | 427 kts | 305° |
| 2026-04-22 17:29 | 26.90708 | 35.64368 | 35825 ft | 427 kts | 305° |
| 2026-04-22 17:30 | 26.94841 | 35.59524 | 35823 ft | 428 kts | 305° |
| 2026-04-22 17:30 | 26.98961 | 35.54693 | 35825 ft | 428 kts | 306° |
| 2026-04-22 17:31 | 27.03063 | 35.49873 | 35821 ft | 428 kts | 306° |
| 2026-04-22 17:31 | 27.07162 | 35.45054 | 35825 ft | 429 kts | 306° |
| 2026-04-22 17:32 | 27.11276 | 35.40210 | 35824 ft | 429 kts | 306° |
| 2026-04-22 17:32 | 27.15390 | 35.35362 | 35824 ft | 430 kts | 306° |
| 2026-04-22 17:33 | 27.19508 | 35.30502 | 35823 ft | 430 kts | 306° |
| 2026-04-22 17:33 | 27.23651 | 35.25610 | 35824 ft | 430 kts | 306° |
| 2026-04-22 17:34 | 27.27773 | 35.20735 | 35823 ft | 431 kts | 306° |
| 2026-04-22 17:34 | 27.31891 | 35.15859 | 35821 ft | 431 kts | 306° |
| 2026-04-22 17:35 | 27.36014 | 35.10972 | 35825 ft | 431 kts | 306° |
| 2026-04-22 17:35 | 27.40142 | 35.06074 | 35824 ft | 431 kts | 306° |
| 2026-04-22 17:36 | 27.44263 | 35.01176 | 35824 ft | 431 kts | 306° |
| 2026-04-22 17:36 | 27.48382 | 34.96277 | 35823 ft | 431 kts | 306° |
| 2026-04-22 17:37 | 27.52565 | 34.91418 | 35827 ft | 434 kts | 308° |
| 2026-04-22 17:37 | 27.56968 | 34.86762 | 35835 ft | 434 kts | 309° |
| 2026-04-22 17:38 | 27.61392 | 34.82125 | 35833 ft | 434 kts | 309° |
| 2026-04-22 17:38 | 27.65783 | 34.77491 | 35834 ft | 434 kts | 309° |
| 2026-04-22 17:39 | 27.70181 | 34.72834 | 35837 ft | 433 kts | 309° |
| 2026-04-22 17:40 | 27.76755 | 34.65855 | 35846 ft | 433 kts | 309° |
| 2026-04-22 17:40 | 27.81151 | 34.61180 | 35847 ft | 433 kts | 309° |
| 2026-04-22 17:41 | 27.85542 | 34.56507 | 35851 ft | 434 kts | 309° |
| 2026-04-22 17:41 | 27.89916 | 34.51845 | 35855 ft | 434 kts | 309° |
| 2026-04-22 17:42 | 27.94340 | 34.47129 | 35851 ft | 435 kts | 309° |
| 2026-04-22 17:42 | 27.97995 | 34.43228 | 35855 ft | 435 kts | 309° |
| 2026-04-22 17:43 | 28.02707 | 34.37367 | 35859 ft | 429 kts | 303° |
| 2026-04-22 17:43 | 28.06463 | 34.32127 | 35859 ft | 430 kts | 303° |
| 2026-04-22 17:44 | 28.10233 | 34.26889 | 35864 ft | 430 kts | 303° |
| 2026-04-22 17:44 | 28.14014 | 34.21645 | 35857 ft | 430 kts | 303° |
| 2026-04-22 17:45 | 28.17793 | 34.16404 | 35854 ft | 430 kts | 303° |
| 2026-04-22 17:45 | 28.21571 | 34.11159 | 35858 ft | 429 kts | 303° |
| 2026-04-22 17:46 | 28.25345 | 34.05910 | 35855 ft | 430 kts | 303° |
| 2026-04-22 17:46 | 28.29112 | 34.00666 | 35869 ft | 429 kts | 303° |
| 2026-04-22 17:47 | 28.32873 | 33.95420 | 35843 ft | 429 kts | 303° |
| 2026-04-22 17:47 | 28.36644 | 33.90157 | 35888 ft | 429 kts | 303° |
| 2026-04-22 17:48 | 28.39787 | 33.85761 | 35876 ft | 430 kts | 303° |
| 2026-04-22 17:48 | 28.44178 | 33.79611 | 35861 ft | 431 kts | 303° |
| 2026-04-22 17:49 | 28.47969 | 33.74306 | 35853 ft | 430 kts | 303° |
| 2026-04-22 17:49 | 28.51711 | 33.69057 | 35860 ft | 430 kts | 303° |
| 2026-04-22 17:50 | 28.55491 | 33.63746 | 35840 ft | 430 kts | 303° |
| 2026-04-22 17:50 | 28.59240 | 33.58461 | 35874 ft | 430 kts | 303° |
| 2026-04-22 17:51 | 28.63002 | 33.53161 | 35860 ft | 431 kts | 303° |
| 2026-04-22 17:51 | 28.66766 | 33.47857 | 35872 ft | 432 kts | 303° |
| 2026-04-22 17:52 | 28.70538 | 33.42537 | 35869 ft | 432 kts | 303° |
| 2026-04-22 17:52 | 28.74313 | 33.37208 | 35863 ft | 432 kts | 303° |
| 2026-04-22 17:53 | 28.78080 | 33.31887 | 35884 ft | 431 kts | 304° |
| 2026-04-22 17:53 | 28.81830 | 33.26577 | 35891 ft | 430 kts | 304° |
| 2026-04-22 17:54 | 28.85562 | 33.21284 | 35890 ft | 430 kts | 304° |
| 2026-04-22 17:54 | 28.89320 | 33.15948 | 35895 ft | 430 kts | 304° |
| 2026-04-22 17:55 | 28.92445 | 33.11508 | 35900 ft | 430 kts | 304° |
| 2026-04-22 17:55 | 28.96172 | 33.06203 | 35909 ft | 430 kts | 304° |
| 2026-04-22 17:56 | 29.00541 | 32.99979 | 35912 ft | 430 kts | 304° |
| 2026-04-22 17:56 | 29.04272 | 32.94655 | 35918 ft | 430 kts | 304° |
| 2026-04-22 17:57 | 29.07390 | 32.90201 | 35921 ft | 430 kts | 304° |
| 2026-04-22 17:57 | 29.11744 | 32.83974 | 35936 ft | 430 kts | 304° |
| 2026-04-22 17:58 | 29.14223 | 32.80425 | 35943 ft | 430 kts | 304° |
| 2026-04-22 17:58 | 29.19079 | 32.73459 | 35953 ft | 430 kts | 304° |
| 2026-04-22 17:59 | 29.22817 | 32.68090 | 35954 ft | 431 kts | 304° |
| 2026-04-22 17:59 | 29.26529 | 32.62753 | 35965 ft | 431 kts | 304° |
| 2026-04-22 18:00 | 29.29637 | 32.58271 | 35963 ft | 431 kts | 304° |
| 2026-04-22 18:00 | 29.33964 | 32.51970 | 35969 ft | 430 kts | 304° |
| 2026-04-22 18:01 | 29.37647 | 32.46591 | 35974 ft | 430 kts | 304° |
| 2026-04-22 18:01 | 29.41322 | 32.41217 | 35972 ft | 430 kts | 304° |
| 2026-04-22 18:02 | 29.45003 | 32.35831 | 35982 ft | 430 kts | 304° |
| 2026-04-22 18:02 | 29.48714 | 32.30401 | 35978 ft | 430 kts | 304° |
| 2026-04-22 18:03 | 29.52402 | 32.24992 | 35985 ft | 431 kts | 304° |
| 2026-04-22 18:03 | 29.56083 | 32.19584 | 35980 ft | 431 kts | 304° |
| 2026-04-22 18:04 | 29.59777 | 32.14153 | 35989 ft | 431 kts | 304° |
| 2026-04-22 18:04 | 29.63469 | 32.08718 | 35992 ft | 431 kts | 304° |
| 2026-04-22 18:05 | 29.67141 | 32.03301 | 35982 ft | 430 kts | 304° |
| 2026-04-22 18:05 | 29.70807 | 31.97890 | 35996 ft | 428 kts | 304° |
| 2026-04-22 18:06 | 29.74479 | 31.92460 | 35985 ft | 428 kts | 304° |
| 2026-04-22 18:06 | 29.77503 | 31.87986 | 35993 ft | 427 kts | 304° |
| 2026-04-22 18:07 | 29.81079 | 31.82556 | 35982 ft | 426 kts | 303° |
| 2026-04-22 18:07 | 29.84607 | 31.77038 | 35994 ft | 425 kts | 303° |
| 2026-04-22 18:08 | 29.88700 | 31.70660 | 35984 ft | 426 kts | 303° |
| 2026-04-22 18:08 | 29.91625 | 31.66110 | 35993 ft | 426 kts | 303° |
| 2026-04-22 18:09 | 29.95177 | 31.60602 | 35998 ft | 427 kts | 303° |
| 2026-04-22 18:09 | 29.98717 | 31.55114 | 35993 ft | 427 kts | 303° |
| 2026-04-22 18:10 | 30.02270 | 31.49591 | 35997 ft | 428 kts | 303° |
| 2026-04-22 18:10 | 30.05809 | 31.44087 | 35994 ft | 429 kts | 303° |
| 2026-04-22 18:11 | 30.09491 | 31.38631 | 35987 ft | 431 kts | 308° |
| 2026-04-22 18:11 | 30.13791 | 31.33818 | 35987 ft | 434 kts | 313° |
| 2026-04-22 18:12 | 30.18255 | 31.29080 | 35990 ft | 434 kts | 313° |
| 2026-04-22 18:12 | 30.22679 | 31.24351 | 35989 ft | 434 kts | 313° |
| 2026-04-22 18:13 | 30.27096 | 31.19606 | 35984 ft | 433 kts | 313° |
| 2026-04-22 18:13 | 30.31497 | 31.14872 | 35991 ft | 432 kts | 313° |
| 2026-04-22 18:14 | 30.35880 | 31.10146 | 35985 ft | 432 kts | 313° |
| 2026-04-22 18:14 | 30.40283 | 31.05393 | 35987 ft | 432 kts | 313° |
| 2026-04-22 18:15 | 30.44672 | 31.00651 | 35985 ft | 432 kts | 313° |
| 2026-04-22 18:15 | 30.49068 | 30.95894 | 35985 ft | 432 kts | 313° |
| 2026-04-22 18:16 | 30.53453 | 30.91144 | 35985 ft | 432 kts | 313° |
| 2026-04-22 18:16 | 30.57862 | 30.86362 | 35985 ft | 431 kts | 313° |
| 2026-04-22 18:17 | 30.62237 | 30.81609 | 35996 ft | 431 kts | 313° |
| 2026-04-22 18:17 | 30.66602 | 30.76861 | 36003 ft | 431 kts | 313° |
| 2026-04-22 18:18 | 30.70990 | 30.72082 | 35998 ft | 431 kts | 313° |
| 2026-04-22 18:18 | 30.75353 | 30.67326 | 35999 ft | 431 kts | 313° |
| 2026-04-22 18:19 | 30.79722 | 30.62556 | 36003 ft | 431 kts | 313° |
| 2026-04-22 18:19 | 30.84088 | 30.57782 | 36000 ft | 432 kts | 313° |
| 2026-04-22 18:20 | 30.88463 | 30.52992 | 36003 ft | 432 kts | 313° |
| 2026-04-22 18:20 | 30.92861 | 30.48170 | 36000 ft | 432 kts | 313° |
| 2026-04-22 18:21 | 30.97217 | 30.43387 | 35997 ft | 432 kts | 313° |
| 2026-04-22 18:21 | 31.01579 | 30.38595 | 36000 ft | 432 kts | 313° |
| 2026-04-22 18:22 | 31.05943 | 30.33742 | 35996 ft | 430 kts | 309° |
| 2026-04-22 18:22 | 31.09337 | 30.28096 | 35996 ft | 424 kts | 297° |
| 2026-04-22 18:23 | 31.11592 | 30.21801 | 36002 ft | 422 kts | 287° |
| 2026-04-22 18:23 | 31.13321 | 30.15274 | 35994 ft | 423 kts | 287° |
| 2026-04-22 18:24 | 31.15977 | 30.05459 | 35985 ft | 423 kts | 287° |
| 2026-04-22 18:25 | 31.19055 | 29.95771 | 35999 ft | 424 kts | 295° |
| 2026-04-22 18:25 | 31.22036 | 29.89816 | 35984 ft | 427 kts | 303° |
| 2026-04-22 18:26 | 31.27280 | 29.81463 | 35987 ft | 426 kts | 304° |
| 2026-04-22 18:26 | 31.30806 | 29.75854 | 35990 ft | 426 kts | 303° |
| 2026-04-22 18:27 | 31.34275 | 29.70260 | 35984 ft | 426 kts | 303° |
| 2026-04-22 18:27 | 31.37744 | 29.64645 | 35993 ft | 425 kts | 303° |
| 2026-04-22 18:28 | 31.41192 | 29.59062 | 35995 ft | 425 kts | 303° |
| 2026-04-22 18:28 | 31.44556 | 29.53610 | 35994 ft | 425 kts | 303° |
| 2026-04-22 18:29 | 31.48014 | 29.47999 | 35984 ft | 425 kts | 303° |
| 2026-04-22 18:29 | 31.51462 | 29.42397 | 35985 ft | 425 kts | 303° |
| 2026-04-22 18:30 | 31.56654 | 29.33947 | 35991 ft | 425 kts | 303° |
| 2026-04-22 18:31 | 31.60107 | 29.28316 | 35993 ft | 425 kts | 303° |
| 2026-04-22 18:31 | 31.63546 | 29.22699 | 35996 ft | 425 kts | 303° |
| 2026-04-22 18:32 | 31.66992 | 29.17063 | 35985 ft | 425 kts | 303° |
| 2026-04-22 18:32 | 31.70437 | 29.11419 | 35994 ft | 425 kts | 303° |
| 2026-04-22 18:33 | 31.73868 | 29.05793 | 35984 ft | 425 kts | 303° |
| 2026-04-22 18:33 | 31.77319 | 29.00124 | 35997 ft | 425 kts | 303° |
| 2026-04-22 18:34 | 31.80743 | 28.94492 | 35994 ft | 425 kts | 303° |
| 2026-04-22 18:34 | 31.84171 | 28.88843 | 35994 ft | 425 kts | 303° |
| 2026-04-22 18:35 | 31.87614 | 28.83161 | 36008 ft | 424 kts | 303° |
| 2026-04-22 18:35 | 31.91023 | 28.77528 | 36009 ft | 424 kts | 303° |
| 2026-04-22 18:36 | 31.94448 | 28.71859 | 36002 ft | 424 kts | 303° |
| 2026-04-22 18:36 | 31.97856 | 28.66213 | 36000 ft | 423 kts | 303° |
| 2026-04-22 18:37 | 32.01261 | 28.60560 | 36000 ft | 423 kts | 303° |
| 2026-04-22 18:37 | 32.04075 | 28.55882 | 35999 ft | 423 kts | 303° |
| 2026-04-22 18:38 | 32.08039 | 28.49283 | 36001 ft | 423 kts | 303° |
| 2026-04-22 18:38 | 32.11428 | 28.43635 | 35997 ft | 422 kts | 302° |
| 2026-04-22 18:39 | 32.16513 | 28.35142 | 36001 ft | 422 kts | 303° |
| 2026-04-22 18:39 | 32.19889 | 28.29493 | 36003 ft | 422 kts | 303° |
| 2026-04-22 18:40 | 32.23284 | 28.23804 | 36010 ft | 422 kts | 303° |
| 2026-04-22 18:40 | 32.26662 | 28.18136 | 36010 ft | 422 kts | 303° |
| 2026-04-22 18:41 | 32.30036 | 28.12462 | 36009 ft | 422 kts | 302° |
| 2026-04-22 18:41 | 32.33398 | 28.06801 | 36009 ft | 422 kts | 302° |
| 2026-04-22 18:42 | 32.36761 | 28.01133 | 36006 ft | 422 kts | 302° |
| 2026-04-22 18:42 | 32.40146 | 27.95417 | 36001 ft | 422 kts | 302° |
| 2026-04-22 18:43 | 32.43513 | 27.89722 | 35999 ft | 423 kts | 302° |
| 2026-04-22 18:43 | 32.46876 | 27.84027 | 35999 ft | 423 kts | 302° |
| 2026-04-22 18:44 | 32.50239 | 27.78319 | 36003 ft | 423 kts | 302° |
| 2026-04-22 18:44 | 32.53600 | 27.72608 | 36000 ft | 423 kts | 302° |
| 2026-04-22 18:45 | 32.56979 | 27.66863 | 35997 ft | 424 kts | 302° |
| 2026-04-22 18:45 | 32.60339 | 27.61138 | 36003 ft | 424 kts | 302° |
| 2026-04-22 18:46 | 32.63693 | 27.55417 | 35997 ft | 424 kts | 302° |
| 2026-04-22 18:46 | 32.67077 | 27.49637 | 35997 ft | 424 kts | 302° |
| 2026-04-22 18:47 | 32.70445 | 27.43872 | 35999 ft | 425 kts | 302° |
| 2026-04-22 18:47 | 32.73810 | 27.38101 | 36000 ft | 425 kts | 302° |
| 2026-04-22 18:48 | 32.77170 | 27.32332 | 36002 ft | 426 kts | 302° |
| 2026-04-22 18:48 | 32.80532 | 27.26546 | 35995 ft | 426 kts | 302° |
| 2026-04-22 18:49 | 32.83909 | 27.20732 | 36001 ft | 426 kts | 302° |
| 2026-04-22 18:49 | 32.87276 | 27.14924 | 35998 ft | 427 kts | 302° |
| 2026-04-22 18:50 | 32.90631 | 27.09128 | 35999 ft | 427 kts | 302° |
| 2026-04-22 18:50 | 32.93991 | 27.03313 | 36001 ft | 427 kts | 302° |
| 2026-04-22 18:51 | 32.97339 | 26.97512 | 36000 ft | 426 kts | 302° |
| 2026-04-22 18:51 | 33.00705 | 26.91671 | 36000 ft | 426 kts | 302° |
| 2026-04-22 18:52 | 33.04048 | 26.85859 | 36000 ft | 426 kts | 302° |
| 2026-04-22 18:52 | 33.07368 | 26.80077 | 36002 ft | 426 kts | 302° |
| 2026-04-22 18:53 | 33.10709 | 26.74251 | 36002 ft | 427 kts | 302° |
| 2026-04-22 18:53 | 33.14057 | 26.68404 | 35999 ft | 427 kts | 302° |
| 2026-04-22 18:54 | 33.17399 | 26.62555 | 35999 ft | 427 kts | 302° |
| 2026-04-22 18:54 | 33.20750 | 26.56684 | 35999 ft | 427 kts | 302° |
| 2026-04-22 18:55 | 33.24084 | 26.50834 | 35996 ft | 427 kts | 302° |
| 2026-04-22 18:55 | 33.27433 | 26.44946 | 35993 ft | 427 kts | 302° |
| 2026-04-22 18:56 | 33.30746 | 26.39113 | 35984 ft | 427 kts | 302° |
| 2026-04-22 18:56 | 33.34074 | 26.33245 | 35994 ft | 427 kts | 302° |
| 2026-04-22 18:57 | 33.36848 | 26.28345 | 35995 ft | 427 kts | 302° |
| 2026-04-22 18:57 | 33.40168 | 26.22475 | 35985 ft | 427 kts | 302° |
| 2026-04-22 18:58 | 33.43508 | 26.16556 | 35984 ft | 426 kts | 302° |
| 2026-04-22 18:58 | 33.46806 | 26.10707 | 35993 ft | 426 kts | 302° |
| 2026-04-22 18:59 | 33.50134 | 26.04791 | 35993 ft | 427 kts | 302° |
| 2026-04-22 18:59 | 33.53440 | 25.98908 | 35985 ft | 427 kts | 302° |
| 2026-04-22 19:00 | 33.56753 | 25.93000 | 35984 ft | 427 kts | 301° |
| 2026-04-22 19:00 | 33.60052 | 25.87107 | 35995 ft | 427 kts | 301° |
| 2026-04-22 19:01 | 33.63354 | 25.81203 | 35984 ft | 427 kts | 301° |
| 2026-04-22 19:01 | 33.66657 | 25.75290 | 35982 ft | 427 kts | 301° |
| 2026-04-22 19:02 | 33.69972 | 25.69338 | 35981 ft | 427 kts | 301° |
| 2026-04-22 19:02 | 33.73261 | 25.63425 | 35982 ft | 427 kts | 301° |
| 2026-04-22 19:03 | 33.76554 | 25.57498 | 35981 ft | 427 kts | 301° |
| 2026-04-22 19:03 | 33.79849 | 25.51558 | 35986 ft | 427 kts | 301° |
| 2026-04-22 19:04 | 33.83134 | 25.45625 | 35984 ft | 427 kts | 301° |
| 2026-04-22 19:04 | 33.86411 | 25.39693 | 35980 ft | 426 kts | 301° |
| 2026-04-22 19:05 | 33.89696 | 25.33738 | 35982 ft | 426 kts | 301° |
| 2026-04-22 19:05 | 33.92974 | 25.27788 | 35981 ft | 426 kts | 301° |
| 2026-04-22 19:06 | 33.96254 | 25.21826 | 35981 ft | 426 kts | 301° |
| 2026-04-22 19:07 | 34.00699 | 25.12627 | 35980 ft | 424 kts | 292° |
| 2026-04-22 19:07 | 34.02745 | 25.05999 | 35973 ft | 423 kts | 289° |
| 2026-04-22 19:08 | 34.04725 | 24.99334 | 35972 ft | 423 kts | 289° |
| 2026-04-22 19:08 | 34.06724 | 24.92627 | 35972 ft | 423 kts | 289° |
| 2026-04-22 19:09 | 34.08708 | 24.85984 | 35973 ft | 423 kts | 289° |
| 2026-04-22 19:09 | 34.10708 | 24.79283 | 35971 ft | 423 kts | 289° |
| 2026-04-22 19:10 | 34.12687 | 24.72635 | 35966 ft | 422 kts | 289° |
| 2026-04-22 19:10 | 34.14668 | 24.65963 | 35962 ft | 422 kts | 289° |
| 2026-04-22 19:11 | 34.16644 | 24.59295 | 35963 ft | 422 kts | 289° |
| 2026-04-22 19:11 | 34.18612 | 24.52636 | 35963 ft | 422 kts | 289° |
| 2026-04-22 19:12 | 34.20577 | 24.45973 | 35962 ft | 421 kts | 289° |
| 2026-04-22 19:12 | 34.22547 | 24.39282 | 35966 ft | 421 kts | 289° |
| 2026-04-22 19:13 | 34.24499 | 24.32631 | 35962 ft | 421 kts | 289° |
| 2026-04-22 19:13 | 34.26462 | 24.25940 | 35962 ft | 420 kts | 289° |
| 2026-04-22 19:14 | 34.28406 | 24.19282 | 35963 ft | 420 kts | 289° |
| 2026-04-22 19:14 | 34.30342 | 24.12637 | 35963 ft | 420 kts | 289° |
| 2026-04-22 19:15 | 34.31954 | 24.07099 | 35970 ft | 420 kts | 289° |
| 2026-04-22 19:15 | 34.34206 | 23.99337 | 35973 ft | 420 kts | 289° |
| 2026-04-22 19:16 | 34.36142 | 23.92644 | 35972 ft | 420 kts | 289° |
| 2026-04-22 19:16 | 34.38073 | 23.85969 | 35972 ft | 421 kts | 289° |
| 2026-04-22 19:17 | 34.39994 | 23.79304 | 35973 ft | 421 kts | 289° |
| 2026-04-22 19:17 | 34.41919 | 23.72605 | 35973 ft | 421 kts | 289° |
| 2026-04-22 19:18 | 34.43842 | 23.65905 | 35972 ft | 421 kts | 289° |
| 2026-04-22 19:18 | 34.45767 | 23.59173 | 35971 ft | 422 kts | 289° |
| 2026-04-22 19:19 | 34.47684 | 23.52457 | 35973 ft | 422 kts | 289° |
| 2026-04-22 19:19 | 34.49592 | 23.45761 | 35971 ft | 422 kts | 289° |
| 2026-04-22 19:20 | 34.51498 | 23.39046 | 35975 ft | 422 kts | 289° |
| 2026-04-22 19:20 | 34.53413 | 23.32291 | 35983 ft | 422 kts | 288° |
| 2026-04-22 19:21 | 34.55310 | 23.25577 | 35981 ft | 422 kts | 288° |
| 2026-04-22 19:21 | 34.57176 | 23.18961 | 35982 ft | 422 kts | 288° |
| 2026-04-22 19:22 | 34.59077 | 23.12211 | 35981 ft | 422 kts | 288° |
| 2026-04-22 19:22 | 34.60965 | 23.05485 | 35979 ft | 422 kts | 288° |
| 2026-04-22 19:23 | 34.62805 | 22.98697 | 35978 ft | 422 kts | 285° |
| 2026-04-22 19:23 | 34.64295 | 22.91817 | 35965 ft | 422 kts | 284° |
| 2026-04-22 19:24 | 34.65750 | 22.84931 | 35964 ft | 422 kts | 284° |
| 2026-04-22 19:24 | 34.67221 | 22.77988 | 35967 ft | 423 kts | 284° |
| 2026-04-22 19:25 | 34.68684 | 22.71085 | 35990 ft | 422 kts | 284° |
| 2026-04-22 19:25 | 34.70154 | 22.64154 | 36010 ft | 422 kts | 284° |
| 2026-04-22 19:26 | 34.71610 | 22.57270 | 36018 ft | 422 kts | 284° |
| 2026-04-22 19:26 | 34.73065 | 22.50375 | 36019 ft | 422 kts | 284° |
| 2026-04-22 19:27 | 34.74528 | 22.43422 | 36019 ft | 422 kts | 284° |
| 2026-04-22 19:27 | 34.75976 | 22.36516 | 36019 ft | 422 kts | 284° |
| 2026-04-22 19:28 | 34.77423 | 22.29598 | 36019 ft | 423 kts | 284° |
| 2026-04-22 19:28 | 34.78865 | 22.22673 | 36019 ft | 423 kts | 284° |
| 2026-04-22 19:29 | 34.80309 | 22.15722 | 36018 ft | 422 kts | 284° |
| 2026-04-22 19:29 | 34.81739 | 22.08816 | 36017 ft | 422 kts | 284° |
| 2026-04-22 19:30 | 34.82932 | 22.03035 | 36019 ft | 422 kts | 284° |
| 2026-04-22 19:30 | 34.84595 | 21.94952 | 36027 ft | 422 kts | 284° |
| 2026-04-22 19:31 | 34.86016 | 21.88032 | 36029 ft | 423 kts | 284° |
| 2026-04-22 19:31 | 34.87436 | 21.81082 | 36027 ft | 423 kts | 284° |
| 2026-04-22 19:32 | 34.88852 | 21.74144 | 36029 ft | 423 kts | 284° |
| 2026-04-22 19:32 | 34.90265 | 21.67190 | 36029 ft | 424 kts | 284° |
| 2026-04-22 19:33 | 34.91676 | 21.60224 | 36027 ft | 424 kts | 284° |
| 2026-04-22 19:33 | 34.93083 | 21.53259 | 36028 ft | 424 kts | 284° |
| 2026-04-22 19:34 | 34.94494 | 21.46245 | 36027 ft | 424 kts | 284° |
| 2026-04-22 19:34 | 34.95849 | 21.39492 | 36028 ft | 424 kts | 284° |
| 2026-04-22 19:35 | 34.97256 | 21.32468 | 36028 ft | 424 kts | 284° |
| 2026-04-22 19:35 | 34.98413 | 21.26671 | 36026 ft | 424 kts | 284° |
| 2026-04-22 19:36 | 35.00037 | 21.18497 | 36027 ft | 424 kts | 284° |
| 2026-04-22 19:36 | 35.01425 | 21.11487 | 36011 ft | 425 kts | 284° |
| 2026-04-22 19:37 | 35.02807 | 21.04491 | 36003 ft | 426 kts | 284° |
| 2026-04-22 19:37 | 35.04189 | 20.97474 | 35999 ft | 426 kts | 284° |
| 2026-04-22 19:38 | 35.05571 | 20.90431 | 36004 ft | 425 kts | 283° |
| 2026-04-22 19:38 | 35.06943 | 20.83415 | 35996 ft | 425 kts | 283° |
| 2026-04-22 19:39 | 35.08309 | 20.76407 | 36000 ft | 425 kts | 283° |
| 2026-04-22 19:39 | 35.09674 | 20.69381 | 35997 ft | 425 kts | 283° |
| 2026-04-22 19:40 | 35.11031 | 20.62369 | 36000 ft | 425 kts | 283° |
| 2026-04-22 19:40 | 35.12393 | 20.55314 | 36001 ft | 426 kts | 283° |
| 2026-04-22 19:41 | 35.13745 | 20.48295 | 36000 ft | 425 kts | 283° |
| 2026-04-22 19:41 | 35.15092 | 20.41271 | 36005 ft | 425 kts | 283° |
| 2026-04-22 19:42 | 35.16431 | 20.34256 | 36009 ft | 425 kts | 283° |
| 2026-04-22 19:42 | 35.17770 | 20.27223 | 36011 ft | 426 kts | 283° |
| 2026-04-22 19:43 | 35.19774 | 20.16643 | 36005 ft | 426 kts | 283° |
| 2026-04-22 19:43 | 35.21116 | 20.09543 | 36002 ft | 427 kts | 283° |
| 2026-04-22 19:44 | 35.22444 | 20.02495 | 36000 ft | 427 kts | 283° |
| 2026-04-22 19:44 | 35.23776 | 19.95390 | 36000 ft | 427 kts | 283° |
| 2026-04-22 19:45 | 35.25088 | 19.88367 | 36001 ft | 427 kts | 283° |
| 2026-04-22 19:45 | 35.26412 | 19.81262 | 36009 ft | 426 kts | 283° |
| 2026-04-22 19:46 | 35.27725 | 19.74187 | 36010 ft | 427 kts | 283° |
| 2026-04-22 19:46 | 35.28813 | 19.68307 | 36010 ft | 427 kts | 283° |
| 2026-04-22 19:47 | 35.30341 | 19.60021 | 36009 ft | 427 kts | 283° |
| 2026-04-22 19:47 | 35.31419 | 19.54153 | 36010 ft | 427 kts | 283° |
| 2026-04-22 19:48 | 35.32935 | 19.45876 | 36011 ft | 426 kts | 283° |
| 2026-04-22 19:48 | 35.34013 | 19.39966 | 36010 ft | 426 kts | 283° |
| 2026-04-22 19:49 | 35.35296 | 19.32910 | 36009 ft | 426 kts | 283° |
| 2026-04-22 19:49 | 35.36587 | 19.25793 | 36007 ft | 425 kts | 282° |
| 2026-04-22 19:50 | 35.37860 | 19.18734 | 36008 ft | 425 kts | 282° |
| 2026-04-22 19:50 | 35.39128 | 19.11690 | 36011 ft | 425 kts | 282° |
| 2026-04-22 19:51 | 35.40395 | 19.04631 | 36012 ft | 424 kts | 282° |
| 2026-04-22 19:51 | 35.41664 | 18.97530 | 36009 ft | 424 kts | 282° |
| 2026-04-22 19:52 | 35.42916 | 18.90494 | 36009 ft | 424 kts | 282° |
| 2026-04-22 19:52 | 35.44165 | 18.83445 | 36012 ft | 423 kts | 282° |
| 2026-04-22 19:53 | 35.45411 | 18.76405 | 36008 ft | 423 kts | 282° |
| 2026-04-22 19:53 | 35.46656 | 18.69337 | 36014 ft | 423 kts | 282° |
| 2026-04-22 19:54 | 35.47893 | 18.62286 | 36009 ft | 423 kts | 282° |
| 2026-04-22 19:54 | 35.49124 | 18.55248 | 36007 ft | 422 kts | 282° |
| 2026-04-22 19:55 | 35.50349 | 18.48218 | 36008 ft | 422 kts | 282° |
| 2026-04-22 19:55 | 35.51569 | 18.41183 | 36007 ft | 421 kts | 282° |
| 2026-04-22 19:56 | 35.52783 | 18.34167 | 36007 ft | 421 kts | 282° |
| 2026-04-22 19:56 | 35.53996 | 18.27128 | 36009 ft | 421 kts | 282° |
| 2026-04-22 19:57 | 35.55203 | 18.20099 | 36000 ft | 421 kts | 282° |
| 2026-04-22 19:57 | 35.56402 | 18.13083 | 36004 ft | 421 kts | 282° |
| 2026-04-22 19:58 | 35.57599 | 18.06062 | 36002 ft | 420 kts | 282° |
| 2026-04-22 19:58 | 35.58797 | 17.99006 | 35999 ft | 420 kts | 282° |
| 2026-04-22 20:00 | 35.62936 | 17.74432 | 36002 ft | 420 kts | 282° |
| 2026-04-22 20:01 | 35.64109 | 17.67400 | 35997 ft | 420 kts | 282° |
| 2026-04-22 20:01 | 35.65277 | 17.60374 | 36000 ft | 420 kts | 282° |
| 2026-04-22 20:02 | 35.66449 | 17.53303 | 36002 ft | 421 kts | 282° |
| 2026-04-22 20:02 | 35.67608 | 17.46282 | 36001 ft | 421 kts | 282° |
| 2026-04-22 20:03 | 35.68768 | 17.39231 | 35996 ft | 421 kts | 282° |
| 2026-04-22 20:03 | 35.69932 | 17.32131 | 35985 ft | 421 kts | 282° |
| 2026-04-22 20:04 | 35.71079 | 17.25099 | 35986 ft | 421 kts | 282° |
| 2026-04-22 20:04 | 35.72224 | 17.18048 | 35993 ft | 421 kts | 282° |
| 2026-04-22 20:05 | 35.73365 | 17.10997 | 35993 ft | 421 kts | 282° |
| 2026-04-22 20:05 | 35.74505 | 17.03931 | 35987 ft | 421 kts | 282° |
| 2026-04-22 20:06 | 35.75642 | 16.96855 | 36002 ft | 420 kts | 282° |
| 2026-04-22 20:06 | 35.76769 | 16.89811 | 36000 ft | 421 kts | 282° |
| 2026-04-22 20:07 | 35.77896 | 16.82750 | 36004 ft | 421 kts | 282° |
| 2026-04-22 20:07 | 35.79018 | 16.75680 | 35999 ft | 421 kts | 282° |
| 2026-04-22 20:08 | 35.80137 | 16.68610 | 36002 ft | 420 kts | 282° |
| 2026-04-22 20:08 | 35.81254 | 16.61519 | 36003 ft | 420 kts | 282° |
| 2026-04-22 20:09 | 35.82361 | 16.54463 | 36000 ft | 421 kts | 282° |
| 2026-04-22 20:09 | 35.83463 | 16.47407 | 35996 ft | 421 kts | 282° |
| 2026-04-22 20:10 | 35.84568 | 16.40301 | 35999 ft | 420 kts | 282° |
| 2026-04-22 20:10 | 35.85664 | 16.33230 | 36002 ft | 420 kts | 282° |
| 2026-04-22 20:11 | 35.86756 | 16.26152 | 35998 ft | 420 kts | 282° |
| 2026-04-22 20:11 | 35.87841 | 16.19092 | 36012 ft | 419 kts | 281° |
| 2026-04-22 20:12 | 35.88922 | 16.12038 | 36009 ft | 419 kts | 281° |
| 2026-04-22 20:12 | 35.89821 | 16.06149 | 36009 ft | 419 kts | 281° |
| 2026-04-22 20:13 | 35.91064 | 15.97957 | 36012 ft | 419 kts | 281° |
| 2026-04-22 20:13 | 35.92136 | 15.90868 | 36009 ft | 419 kts | 281° |
| 2026-04-22 20:14 | 35.93198 | 15.83816 | 36010 ft | 419 kts | 281° |
| 2026-04-22 20:14 | 35.94257 | 15.76759 | 36008 ft | 419 kts | 281° |
| 2026-04-22 20:15 | 35.95318 | 15.69650 | 36007 ft | 420 kts | 281° |
| 2026-04-22 20:15 | 35.96369 | 15.62584 | 36012 ft | 420 kts | 281° |
| 2026-04-22 20:16 | 35.97462 | 15.55470 | 36008 ft | 420 kts | 282° |
| 2026-04-22 20:16 | 35.98580 | 15.48406 | 36007 ft | 420 kts | 282° |
| 2026-04-22 20:17 | 35.99693 | 15.41330 | 36015 ft | 421 kts | 282° |
| 2026-04-22 20:17 | 36.00802 | 15.34235 | 36011 ft | 422 kts | 282° |
| 2026-04-22 20:18 | 36.01903 | 15.27128 | 36008 ft | 422 kts | 281° |
| 2026-04-22 20:18 | 36.02999 | 15.20027 | 36001 ft | 422 kts | 281° |
| 2026-04-22 20:19 | 36.04102 | 15.12859 | 36001 ft | 422 kts | 281° |
| 2026-04-22 20:19 | 36.05190 | 15.05740 | 36001 ft | 423 kts | 281° |
| 2026-04-22 20:20 | 36.06278 | 14.98609 | 35998 ft | 423 kts | 281° |
| 2026-04-22 20:20 | 36.07363 | 14.91473 | 36000 ft | 423 kts | 281° |
| 2026-04-22 20:21 | 36.08442 | 14.84337 | 35997 ft | 423 kts | 281° |
| 2026-04-22 20:21 | 36.09524 | 14.77148 | 35999 ft | 424 kts | 281° |
| 2026-04-22 20:22 | 36.10597 | 14.70000 | 36001 ft | 424 kts | 281° |
| 2026-04-22 20:22 | 36.11667 | 14.62836 | 36002 ft | 425 kts | 281° |
| 2026-04-22 20:23 | 36.12730 | 14.55673 | 36000 ft | 425 kts | 281° |
| 2026-04-22 20:23 | 36.13800 | 14.48448 | 35996 ft | 425 kts | 281° |
| 2026-04-22 20:24 | 36.14857 | 14.41279 | 36002 ft | 425 kts | 281° |
| 2026-04-22 20:24 | 36.15910 | 14.34090 | 36000 ft | 426 kts | 281° |
| 2026-04-22 20:25 | 36.16965 | 14.26884 | 36000 ft | 426 kts | 280° |
| 2026-04-22 20:25 | 36.18012 | 14.19687 | 36002 ft | 426 kts | 280° |
| 2026-04-22 20:26 | 36.19061 | 14.12444 | 36000 ft | 426 kts | 280° |
| 2026-04-22 20:26 | 36.20103 | 14.05225 | 35997 ft | 426 kts | 280° |
| 2026-04-22 20:27 | 36.21140 | 13.97997 | 36002 ft | 426 kts | 280° |
| 2026-04-22 20:27 | 36.22171 | 13.90781 | 36003 ft | 426 kts | 280° |
| 2026-04-22 20:28 | 36.23196 | 13.83567 | 35999 ft | 426 kts | 280° |
| 2026-04-22 20:28 | 36.24223 | 13.76317 | 36000 ft | 426 kts | 280° |
| 2026-04-22 20:29 | 36.25242 | 13.69096 | 35998 ft | 426 kts | 280° |
| 2026-04-22 20:29 | 36.26258 | 13.61870 | 36001 ft | 426 kts | 280° |
| 2026-04-22 20:30 | 36.27264 | 13.54674 | 35999 ft | 426 kts | 280° |
| 2026-04-22 20:30 | 36.28273 | 13.47411 | 36002 ft | 426 kts | 280° |
| 2026-04-22 20:31 | 36.29276 | 13.40167 | 35996 ft | 427 kts | 280° |
| 2026-04-22 20:31 | 36.30274 | 13.32923 | 35999 ft | 427 kts | 280° |
| 2026-04-22 20:32 | 36.31267 | 13.25676 | 36002 ft | 427 kts | 280° |
| 2026-04-22 20:32 | 36.32261 | 13.18397 | 35999 ft | 428 kts | 279° |
| 2026-04-22 20:33 | 36.33247 | 13.11140 | 35998 ft | 428 kts | 279° |
| 2026-04-22 20:33 | 36.34233 | 13.03865 | 36003 ft | 428 kts | 279° |
| 2026-04-22 20:34 | 36.35214 | 12.96578 | 36001 ft | 429 kts | 279° |
| 2026-04-22 20:34 | 36.36191 | 12.89292 | 36001 ft | 429 kts | 279° |
| 2026-04-22 20:35 | 36.37162 | 12.81999 | 35998 ft | 429 kts | 279° |
| 2026-04-22 20:35 | 36.38129 | 12.74709 | 35998 ft | 429 kts | 279° |
| 2026-04-22 20:36 | 36.39094 | 12.67400 | 35999 ft | 429 kts | 279° |
| 2026-04-22 20:36 | 36.40060 | 12.60048 | 35999 ft | 430 kts | 279° |
| 2026-04-22 20:37 | 36.41015 | 12.52743 | 36006 ft | 430 kts | 279° |
| 2026-04-22 20:37 | 36.41967 | 12.45435 | 36009 ft | 430 kts | 279° |
| 2026-04-22 20:38 | 36.42760 | 12.39314 | 36009 ft | 431 kts | 279° |
| 2026-04-22 20:38 | 36.43707 | 12.31966 | 36009 ft | 431 kts | 279° |
| 2026-04-22 20:39 | 36.44655 | 12.24585 | 36008 ft | 432 kts | 278° |
| 2026-04-22 20:39 | 36.45594 | 12.17223 | 36017 ft | 432 kts | 278° |
| 2026-04-22 20:40 | 36.46532 | 12.09852 | 36020 ft | 433 kts | 278° |
| 2026-04-22 20:40 | 36.47462 | 12.02474 | 36018 ft | 433 kts | 278° |
| 2026-04-22 20:41 | 36.48391 | 11.95098 | 36017 ft | 433 kts | 278° |
| 2026-04-22 20:41 | 36.49320 | 11.87671 | 36018 ft | 433 kts | 279° |
| 2026-04-22 20:42 | 36.50804 | 11.80430 | 36023 ft | 434 kts | 288° |
| 2026-04-22 20:42 | 36.53181 | 11.73541 | 36026 ft | 434 kts | 294° |
| 2026-04-22 20:43 | 36.55770 | 11.66730 | 36274 ft | 438 kts | 293° |
| 2026-04-22 20:43 | 36.57047 | 11.63330 | 36610 ft | 436 kts | 293° |
| 2026-04-22 20:43 | 36.58324 | 11.59908 | 37061 ft | 432 kts | 293° |
| 2026-04-22 20:43 | 36.59569 | 11.56562 | 37504 ft | 428 kts | 293° |
| 2026-04-22 20:44 | 36.60741 | 11.53150 | 37872 ft | 424 kts | 288° |
| 2026-04-22 20:44 | 36.61613 | 11.49668 | 38028 ft | 425 kts | 284° |
| 2026-04-22 20:44 | 36.62294 | 11.46066 | 38028 ft | 425 kts | 280° |
| 2026-04-22 20:45 | 36.63027 | 11.38797 | 38020 ft | 420 kts | 276° |
| 2026-04-22 20:45 | 36.63615 | 11.31595 | 38015 ft | 418 kts | 276° |
| 2026-04-22 20:46 | 36.64508 | 11.20802 | 38020 ft | 418 kts | 276° |
| 2026-04-22 20:46 | 36.65112 | 11.13612 | 38020 ft | 419 kts | 276° |
| 2026-04-22 20:47 | 36.65715 | 11.06423 | 38020 ft | 420 kts | 276° |
| 2026-04-22 20:47 | 36.66320 | 10.99165 | 38020 ft | 421 kts | 276° |
| 2026-04-22 20:48 | 36.66918 | 10.91907 | 38032 ft | 421 kts | 276° |
| 2026-04-22 20:48 | 36.67512 | 10.84662 | 38033 ft | 422 kts | 276° |
| 2026-04-22 20:49 | 36.68107 | 10.77351 | 38030 ft | 423 kts | 276° |
| 2026-04-22 20:49 | 36.68695 | 10.70058 | 38027 ft | 424 kts | 276° |
| 2026-04-22 20:50 | 36.69282 | 10.62749 | 38037 ft | 424 kts | 276° |
| 2026-04-22 20:50 | 36.69861 | 10.55458 | 38037 ft | 424 kts | 276° |
| 2026-04-22 20:51 | 36.70436 | 10.48162 | 38044 ft | 424 kts | 276° |
| 2026-04-22 20:51 | 36.71010 | 10.40824 | 38043 ft | 424 kts | 276° |
| 2026-04-22 20:52 | 36.71578 | 10.33519 | 38047 ft | 424 kts | 276° |
| 2026-04-22 20:52 | 36.72140 | 10.26239 | 38047 ft | 424 kts | 276° |
| 2026-04-22 20:53 | 36.72700 | 10.18895 | 38048 ft | 424 kts | 275° |
| 2026-04-22 20:53 | 36.73253 | 10.11583 | 38046 ft | 424 kts | 275° |
| 2026-04-22 20:54 | 36.73801 | 10.04291 | 38048 ft | 424 kts | 275° |
| 2026-04-22 20:54 | 36.74346 | 9.96981 | 38041 ft | 424 kts | 275° |
| 2026-04-22 20:55 | 36.74886 | 9.89677 | 38046 ft | 424 kts | 275° |
| 2026-04-22 20:55 | 36.75422 | 9.82362 | 38047 ft | 425 kts | 275° |
| 2026-04-22 20:56 | 36.75958 | 9.74983 | 38048 ft | 426 kts | 275° |
| 2026-04-22 20:56 | 36.76486 | 9.67648 | 38046 ft | 426 kts | 275° |
| 2026-04-22 20:57 | 36.77011 | 9.60284 | 38046 ft | 426 kts | 275° |
| 2026-04-22 20:57 | 36.77531 | 9.52949 | 38047 ft | 426 kts | 275° |
| 2026-04-22 20:58 | 36.78048 | 9.45590 | 38041 ft | 426 kts | 275° |
| 2026-04-22 20:58 | 36.78558 | 9.38237 | 38044 ft | 426 kts | 275° |
| 2026-04-22 20:59 | 36.79067 | 9.30842 | 38044 ft | 426 kts | 275° |
| 2026-04-22 20:59 | 36.79571 | 9.23487 | 38048 ft | 426 kts | 275° |
| 2026-04-22 21:00 | 36.80069 | 9.16131 | 38045 ft | 426 kts | 275° |
| 2026-04-22 21:00 | 36.80560 | 9.08792 | 38045 ft | 425 kts | 275° |
| 2026-04-22 21:01 | 36.81047 | 9.01450 | 38042 ft | 426 kts | 275° |
| 2026-04-22 21:01 | 36.81529 | 8.94112 | 38050 ft | 425 kts | 275° |
| 2026-04-22 21:02 | 36.82010 | 8.86754 | 38042 ft | 425 kts | 275° |
| 2026-04-22 21:02 | 36.82487 | 8.79354 | 38046 ft | 426 kts | 275° |
| 2026-04-22 21:03 | 36.82958 | 8.71985 | 38051 ft | 427 kts | 275° |
| 2026-04-22 21:03 | 36.83403 | 8.64621 | 38048 ft | 427 kts | 272° |
| 2026-04-22 21:04 | 36.83442 | 8.57228 | 38042 ft | 427 kts | 270° |
| 2026-04-22 21:04 | 36.83418 | 8.49779 | 38044 ft | 427 kts | 270° |
| 2026-04-22 21:05 | 36.83403 | 8.42370 | 38048 ft | 427 kts | 270° |
| 2026-04-22 21:05 | 36.83392 | 8.34956 | 38046 ft | 428 kts | 270° |
| 2026-04-22 21:06 | 36.83381 | 8.27552 | 38049 ft | 428 kts | 270° |
| 2026-04-22 21:06 | 36.83364 | 8.20142 | 38046 ft | 428 kts | 270° |
| 2026-04-22 21:07 | 36.83342 | 8.12678 | 38046 ft | 428 kts | 270° |
| 2026-04-22 21:07 | 36.83316 | 8.05269 | 38046 ft | 428 kts | 270° |
| 2026-04-22 21:08 | 36.83285 | 7.97814 | 38045 ft | 428 kts | 270° |
| 2026-04-22 21:08 | 36.83250 | 7.90429 | 38046 ft | 429 kts | 270° |
| 2026-04-22 21:09 | 36.83556 | 7.82967 | 38046 ft | 429 kts | 279° |
| 2026-04-22 21:09 | 36.85006 | 7.75775 | 38048 ft | 430 kts | 290° |
| 2026-04-22 21:10 | 36.87244 | 7.68849 | 38045 ft | 431 kts | 291° |
| 2026-04-22 21:10 | 36.89545 | 7.61938 | 38051 ft | 432 kts | 291° |
| 2026-04-22 21:11 | 36.91842 | 7.54961 | 38045 ft | 433 kts | 291° |
| 2026-04-22 21:11 | 36.94104 | 7.48004 | 38056 ft | 433 kts | 291° |
| 2026-04-22 21:12 | 36.96348 | 7.41062 | 38057 ft | 433 kts | 291° |
| 2026-04-22 21:12 | 36.98608 | 7.34055 | 38054 ft | 433 kts | 291° |
| 2026-04-22 21:13 | 37.00842 | 7.27112 | 38052 ft | 432 kts | 291° |
| 2026-04-22 21:13 | 37.03077 | 7.20150 | 38058 ft | 432 kts | 291° |
| 2026-04-22 21:14 | 37.05317 | 7.13154 | 38064 ft | 431 kts | 291° |
| 2026-04-22 21:14 | 37.07546 | 7.06177 | 38066 ft | 432 kts | 291° |
| 2026-04-22 21:15 | 37.09764 | 6.99222 | 38065 ft | 432 kts | 291° |
| 2026-04-22 21:15 | 37.11997 | 6.92198 | 38073 ft | 432 kts | 291° |
| 2026-04-22 21:16 | 37.14212 | 6.85211 | 38072 ft | 432 kts | 291° |
| 2026-04-22 21:16 | 37.16420 | 6.78235 | 38075 ft | 433 kts | 292° |
| 2026-04-22 21:17 | 37.18641 | 6.71194 | 38074 ft | 432 kts | 292° |
| 2026-04-22 21:17 | 37.20841 | 6.64209 | 38061 ft | 432 kts | 292° |
| 2026-04-22 21:18 | 37.23044 | 6.57196 | 38049 ft | 432 kts | 292° |
| 2026-04-22 21:18 | 37.25252 | 6.50151 | 38062 ft | 432 kts | 292° |
| 2026-04-22 21:19 | 37.27438 | 6.43154 | 38064 ft | 432 kts | 292° |
| 2026-04-22 21:19 | 37.29620 | 6.36154 | 38069 ft | 431 kts | 292° |
| 2026-04-22 21:20 | 37.31813 | 6.29104 | 38077 ft | 432 kts | 293° |
| 2026-04-22 21:20 | 37.33991 | 6.22089 | 38064 ft | 433 kts | 293° |
| 2026-04-22 21:21 | 37.36095 | 6.15283 | 38063 ft | 432 kts | 293° |
| 2026-04-22 21:21 | 37.38321 | 6.08066 | 38066 ft | 432 kts | 293° |
| 2026-04-22 21:22 | 37.40486 | 6.01037 | 38064 ft | 431 kts | 293° |
| 2026-04-22 21:22 | 37.42643 | 5.94019 | 38062 ft | 431 kts | 294° |
| 2026-04-22 21:23 | 37.44796 | 5.86989 | 38068 ft | 431 kts | 294° |
| 2026-04-22 21:23 | 37.46952 | 5.79936 | 38055 ft | 432 kts | 294° |
| 2026-04-22 21:24 | 37.49102 | 5.72883 | 38046 ft | 432 kts | 293° |
| 2026-04-22 21:24 | 37.51246 | 5.65827 | 38043 ft | 432 kts | 293° |
| 2026-04-22 21:25 | 37.53394 | 5.58752 | 38048 ft | 432 kts | 293° |
| 2026-04-22 21:25 | 37.55526 | 5.51707 | 38045 ft | 432 kts | 293° |
| 2026-04-22 21:26 | 37.57656 | 5.44645 | 38045 ft | 433 kts | 293° |
| 2026-04-22 21:26 | 37.59791 | 5.37548 | 38044 ft | 433 kts | 293° |
| 2026-04-22 21:27 | 37.61921 | 5.30454 | 38048 ft | 433 kts | 293° |
| 2026-04-22 21:27 | 37.64049 | 5.23342 | 38047 ft | 434 kts | 292° |
| 2026-04-22 21:28 | 37.66190 | 5.16178 | 38056 ft | 434 kts | 292° |
| 2026-04-22 21:28 | 37.68313 | 5.09049 | 38057 ft | 435 kts | 292° |
| 2026-04-22 21:29 | 37.70433 | 5.01916 | 38055 ft | 436 kts | 292° |
| 2026-04-22 21:29 | 37.72646 | 4.94754 | 38057 ft | 436 kts | 294° |
| 2026-04-22 21:30 | 37.74978 | 4.87703 | 38054 ft | 436 kts | 294° |
| 2026-04-22 21:30 | 37.77313 | 4.80643 | 38057 ft | 437 kts | 294° |
| 2026-04-22 21:31 | 37.79249 | 4.74721 | 38055 ft | 437 kts | 294° |
| 2026-04-22 21:31 | 37.81942 | 4.66421 | 38056 ft | 437 kts | 294° |
| 2026-04-22 21:32 | 37.83860 | 4.60491 | 38057 ft | 437 kts | 294° |
| 2026-04-22 21:32 | 37.86154 | 4.53389 | 38055 ft | 437 kts | 294° |
| 2026-04-22 21:33 | 37.88458 | 4.46228 | 38056 ft | 438 kts | 294° |
| 2026-04-22 21:33 | 37.90746 | 4.39103 | 38056 ft | 438 kts | 293° |
| 2026-04-22 21:34 | 37.93029 | 4.31975 | 38055 ft | 438 kts | 293° |
| 2026-04-22 21:34 | 37.95304 | 4.24850 | 38054 ft | 437 kts | 293° |
| 2026-04-22 21:35 | 37.97576 | 4.17728 | 38056 ft | 437 kts | 293° |
| 2026-04-22 21:35 | 37.99857 | 4.10552 | 38056 ft | 437 kts | 293° |
| 2026-04-22 21:36 | 38.02121 | 4.03414 | 38056 ft | 438 kts | 293° |
| 2026-04-22 21:36 | 38.04396 | 3.96226 | 38056 ft | 438 kts | 293° |
| 2026-04-22 21:37 | 38.06653 | 3.89070 | 38055 ft | 438 kts | 293° |
| 2026-04-22 21:37 | 38.08913 | 3.81889 | 38056 ft | 438 kts | 293° |
| 2026-04-22 21:38 | 38.11164 | 3.74718 | 38055 ft | 438 kts | 293° |
| 2026-04-22 21:38 | 38.13433 | 3.67478 | 38056 ft | 438 kts | 293° |
| 2026-04-22 21:39 | 38.15678 | 3.60289 | 38056 ft | 439 kts | 293° |
| 2026-04-22 21:39 | 38.17913 | 3.53111 | 38055 ft | 438 kts | 293° |
| 2026-04-22 21:40 | 38.20146 | 3.45927 | 38056 ft | 438 kts | 293° |
| 2026-04-22 21:40 | 38.22365 | 3.38695 | 38055 ft | 438 kts | 292° |
| 2026-04-22 21:41 | 38.24503 | 3.31437 | 38056 ft | 438 kts | 292° |
| 2026-04-22 21:41 | 38.26628 | 3.24212 | 38055 ft | 437 kts | 292° |
| 2026-04-22 21:42 | 38.28766 | 3.16959 | 38055 ft | 437 kts | 292° |
| 2026-04-22 21:42 | 38.31198 | 3.09926 | 38062 ft | 435 kts | 297° |
| 2026-04-22 21:43 | 38.33867 | 3.02966 | 38058 ft | 436 kts | 297° |
| 2026-04-22 21:43 | 38.36497 | 2.96042 | 38055 ft | 436 kts | 297° |
| 2026-04-22 21:44 | 38.39115 | 2.89090 | 38056 ft | 436 kts | 297° |
| 2026-04-22 21:44 | 38.41732 | 2.82126 | 38055 ft | 435 kts | 297° |
| 2026-04-22 21:45 | 38.44355 | 2.75155 | 38056 ft | 436 kts | 297° |
| 2026-04-22 21:45 | 38.46977 | 2.68180 | 38058 ft | 436 kts | 297° |
| 2026-04-22 21:46 | 38.49576 | 2.61239 | 38043 ft | 436 kts | 297° |
| 2026-04-22 21:46 | 38.52194 | 2.54234 | 38036 ft | 436 kts | 297° |
| 2026-04-22 21:47 | 38.54801 | 2.47255 | 38037 ft | 436 kts | 297° |
| 2026-04-22 21:47 | 38.57419 | 2.40255 | 38038 ft | 436 kts | 297° |
| 2026-04-22 21:48 | 38.60016 | 2.33294 | 38036 ft | 435 kts | 297° |
| 2026-04-22 21:48 | 38.62610 | 2.26321 | 38037 ft | 435 kts | 297° |
| 2026-04-22 21:49 | 38.65211 | 2.19312 | 38034 ft | 435 kts | 297° |
| 2026-04-22 21:49 | 38.67801 | 2.12306 | 38039 ft | 435 kts | 296° |
| 2026-04-22 21:50 | 38.70371 | 2.05296 | 38050 ft | 435 kts | 296° |
| 2026-04-22 21:50 | 38.72935 | 1.98272 | 38057 ft | 435 kts | 296° |
| 2026-04-22 21:51 | 38.75441 | 1.91399 | 38056 ft | 436 kts | 296° |
| 2026-04-22 21:52 | 38.79284 | 1.80837 | 38054 ft | 436 kts | 296° |
| 2026-04-22 21:52 | 38.81845 | 1.73777 | 38054 ft | 436 kts | 296° |
| 2026-04-22 21:53 | 38.84402 | 1.66708 | 38045 ft | 436 kts | 296° |
| 2026-04-22 21:53 | 38.86952 | 1.59647 | 38048 ft | 436 kts | 296° |
| 2026-04-22 21:54 | 38.89485 | 1.52614 | 38042 ft | 436 kts | 296° |
| 2026-04-22 21:54 | 38.91983 | 1.45509 | 38045 ft | 437 kts | 294° |
| 2026-04-22 21:55 | 38.94201 | 1.38243 | 38047 ft | 437 kts | 292° |
| 2026-04-22 21:55 | 38.96377 | 1.30937 | 38049 ft | 438 kts | 292° |
| 2026-04-22 21:56 | 38.98563 | 1.23635 | 38042 ft | 438 kts | 293° |
| 2026-04-22 21:56 | 39.00755 | 1.16333 | 38047 ft | 438 kts | 293° |
| 2026-04-22 21:57 | 39.02944 | 1.09030 | 38046 ft | 437 kts | 292° |
| 2026-04-22 21:57 | 39.05127 | 1.01727 | 38046 ft | 437 kts | 292° |
| 2026-04-22 21:58 | 39.07307 | 0.94415 | 38047 ft | 437 kts | 292° |
| 2026-04-22 21:58 | 39.09481 | 0.87097 | 38056 ft | 437 kts | 292° |
| 2026-04-22 21:59 | 39.11640 | 0.79817 | 38055 ft | 438 kts | 292° |
| 2026-04-22 21:59 | 39.13805 | 0.72498 | 38056 ft | 438 kts | 292° |
| 2026-04-22 22:00 | 39.15962 | 0.65166 | 38055 ft | 438 kts | 292° |
| 2026-04-22 22:00 | 39.18115 | 0.57823 | 38056 ft | 438 kts | 292° |
| 2026-04-22 22:01 | 39.20271 | 0.50459 | 38054 ft | 438 kts | 292° |
| 2026-04-22 22:01 | 39.22417 | 0.43104 | 38057 ft | 439 kts | 292° |
| 2026-04-22 22:02 | 39.24565 | 0.35724 | 38056 ft | 439 kts | 292° |
| 2026-04-22 22:02 | 39.26690 | 0.28398 | 38066 ft | 439 kts | 292° |
| 2026-04-22 22:03 | 39.28826 | 0.21013 | 38064 ft | 439 kts | 292° |
| 2026-04-22 22:03 | 39.30954 | 0.13633 | 38066 ft | 439 kts | 292° |
| 2026-04-22 22:04 | 39.33082 | 0.06241 | 38065 ft | 438 kts | 292° |
| 2026-04-22 22:04 | 39.35138 | -0.00928 | 38063 ft | 438 kts | 292° |
| 2026-04-22 22:05 | 39.37210 | -0.08162 | 38067 ft | 440 kts | 290° |
| 2026-04-22 22:05 | 39.39331 | -0.15590 | 38083 ft | 441 kts | 290° |
| 2026-04-22 22:06 | 39.41461 | -0.23068 | 38077 ft | 444 kts | 290° |
| 2026-04-22 22:06 | 39.43591 | -0.30569 | 38076 ft | 445 kts | 290° |
| 2026-04-22 22:07 | 39.45730 | -0.38124 | 38075 ft | 447 kts | 290° |
| 2026-04-22 22:07 | 39.47865 | -0.45676 | 38072 ft | 447 kts | 290° |
| 2026-04-22 22:08 | 39.50553 | -0.52910 | 38075 ft | 446 kts | 300° |
| 2026-04-22 22:08 | 39.53673 | -0.59859 | 38075 ft | 446 kts | 300° |
| 2026-04-22 22:09 | 39.56754 | -0.66769 | 38071 ft | 445 kts | 299° |
| 2026-04-22 22:09 | 39.59822 | -0.73729 | 38076 ft | 444 kts | 299° |
| 2026-04-22 22:10 | 39.62875 | -0.80692 | 38074 ft | 444 kts | 299° |
| 2026-04-22 22:10 | 39.65846 | -0.87477 | 38074 ft | 443 kts | 299° |
| 2026-04-22 22:11 | 39.68893 | -0.94450 | 38071 ft | 444 kts | 299° |
| 2026-04-22 22:11 | 39.71935 | -1.01429 | 38079 ft | 444 kts | 299° |
| 2026-04-22 22:12 | 39.74916 | -1.08280 | 38078 ft | 444 kts | 299° |
| 2026-04-22 22:12 | 39.77948 | -1.15283 | 38074 ft | 445 kts | 299° |
| 2026-04-22 22:13 | 39.80982 | -1.22305 | 38089 ft | 445 kts | 299° |
| 2026-04-22 22:13 | 39.84040 | -1.29307 | 38080 ft | 445 kts | 299° |
| 2026-04-22 22:14 | 39.87109 | -1.36325 | 38082 ft | 446 kts | 299° |
| 2026-04-22 22:14 | 39.90169 | -1.43354 | 38088 ft | 446 kts | 299° |
| 2026-04-22 22:15 | 39.93211 | -1.50399 | 38082 ft | 446 kts | 299° |
| 2026-04-22 22:15 | 39.96223 | -1.57411 | 38093 ft | 446 kts | 299° |
| 2026-04-22 22:16 | 39.99246 | -1.64467 | 38080 ft | 445 kts | 298° |
| 2026-04-22 22:16 | 40.02263 | -1.71522 | 38092 ft | 445 kts | 298° |
| 2026-04-22 22:17 | 40.05278 | -1.78584 | 38082 ft | 445 kts | 298° |
| 2026-04-22 22:17 | 40.08285 | -1.85645 | 38078 ft | 445 kts | 298° |
| 2026-04-22 22:18 | 40.11287 | -1.92710 | 38082 ft | 445 kts | 298° |
| 2026-04-22 22:18 | 40.14285 | -1.99780 | 38089 ft | 445 kts | 298° |
| 2026-04-22 22:19 | 40.17295 | -2.06859 | 38079 ft | 445 kts | 298° |
| 2026-04-22 22:19 | 40.20289 | -2.13885 | 38080 ft | 445 kts | 298° |
| 2026-04-22 22:20 | 40.23276 | -2.20971 | 38091 ft | 445 kts | 298° |
| 2026-04-22 22:20 | 40.26240 | -2.28085 | 38098 ft | 445 kts | 298° |
| 2026-04-22 22:21 | 40.28697 | -2.33996 | 38092 ft | 445 kts | 298° |
| 2026-04-22 22:21 | 40.31658 | -2.41120 | 38082 ft | 445 kts | 298° |
| 2026-04-22 22:22 | 40.34616 | -2.48249 | 38071 ft | 445 kts | 297° |
| 2026-04-22 22:22 | 40.35819 | -2.51970 | 38067 ft | 442 kts | 284° |
| 2026-04-22 22:22 | 40.36269 | -2.55947 | 38089 ft | 442 kts | 272° |
| 2026-04-22 22:22 | 40.36098 | -2.59982 | 38064 ft | 444 kts | 260° |
| 2026-04-22 22:23 | 40.35310 | -2.63896 | 38081 ft | 443 kts | 255° |
| 2026-04-22 22:23 | 40.33533 | -2.71604 | 38069 ft | 445 kts | 255° |
| 2026-04-22 22:24 | 40.31781 | -2.79400 | 38067 ft | 447 kts | 255° |
| 2026-04-22 22:24 | 40.30060 | -2.87238 | 38059 ft | 448 kts | 255° |
| 2026-04-22 22:25 | 40.28337 | -2.95100 | 38054 ft | 449 kts | 255° |
| 2026-04-22 22:25 | 40.26608 | -3.02952 | 38059 ft | 448 kts | 255° |
| 2026-04-22 22:26 | 40.24873 | -3.10785 | 38056 ft | 448 kts | 255° |
| 2026-04-22 22:26 | 40.23145 | -3.18555 | 38054 ft | 447 kts | 255° |
| 2026-04-22 22:27 | 40.21409 | -3.26352 | 38054 ft | 445 kts | 255° |
| 2026-04-22 22:27 | 40.19682 | -3.34127 | 38057 ft | 444 kts | 255° |
| 2026-04-22 22:28 | 40.17955 | -3.41882 | 38055 ft | 444 kts | 254° |
| 2026-04-22 22:28 | 40.16223 | -3.49631 | 38050 ft | 444 kts | 254° |
| 2026-04-22 22:29 | 40.14483 | -3.57390 | 38048 ft | 444 kts | 254° |
| 2026-04-22 22:29 | 40.12742 | -3.65127 | 38044 ft | 444 kts | 254° |
| 2026-04-22 22:30 | 40.10993 | -3.72872 | 38048 ft | 444 kts | 254° |
| 2026-04-22 22:30 | 40.09228 | -3.80593 | 38047 ft | 444 kts | 254° |
| 2026-04-22 22:31 | 40.07458 | -3.88274 | 38045 ft | 444 kts | 254° |
| 2026-04-22 22:31 | 40.05674 | -3.96000 | 38046 ft | 444 kts | 253° |
| 2026-04-22 22:32 | 40.03888 | -4.03719 | 38047 ft | 444 kts | 253° |
| 2026-04-22 22:32 | 40.02097 | -4.11438 | 38045 ft | 444 kts | 253° |
| 2026-04-22 22:33 | 40.00304 | -4.19143 | 38045 ft | 444 kts | 253° |
| 2026-04-22 22:33 | 39.98506 | -4.26852 | 38048 ft | 444 kts | 253° |
| 2026-04-22 22:34 | 39.96699 | -4.34561 | 38047 ft | 444 kts | 254° |
| 2026-04-22 22:34 | 39.95117 | -4.42330 | 38046 ft | 443 kts | 256° |
| 2026-04-22 22:35 | 39.93605 | -4.50126 | 38048 ft | 443 kts | 256° |
| 2026-04-22 22:35 | 39.92046 | -4.57894 | 38048 ft | 443 kts | 256° |
| 2026-04-22 22:36 | 39.90474 | -4.65596 | 38036 ft | 442 kts | 255° |
| 2026-04-22 22:36 | 39.88883 | -4.73335 | 38038 ft | 442 kts | 255° |
| 2026-04-22 22:37 | 39.87296 | -4.81050 | 38037 ft | 441 kts | 255° |
| 2026-04-22 22:37 | 39.85706 | -4.88752 | 38032 ft | 440 kts | 255° |
| 2026-04-22 22:38 | 39.84111 | -4.96461 | 38024 ft | 440 kts | 255° |
| 2026-04-22 22:38 | 39.82523 | -5.04103 | 38020 ft | 440 kts | 255° |
| 2026-04-22 22:39 | 39.80921 | -5.11788 | 38015 ft | 439 kts | 255° |
| 2026-04-22 22:39 | 39.79318 | -5.19443 | 38019 ft | 438 kts | 255° |
| 2026-04-22 22:40 | 39.77714 | -5.27083 | 38018 ft | 438 kts | 254° |
| 2026-04-22 22:40 | 39.76103 | -5.34722 | 38014 ft | 438 kts | 254° |
| 2026-04-22 22:41 | 39.74484 | -5.42354 | 38014 ft | 438 kts | 254° |
| 2026-04-22 22:41 | 39.72861 | -5.49977 | 38014 ft | 438 kts | 254° |
| 2026-04-22 22:42 | 39.71232 | -5.57604 | 38007 ft | 438 kts | 254° |
| 2026-04-22 22:42 | 39.69599 | -5.65230 | 38000 ft | 438 kts | 254° |
| 2026-04-22 22:43 | 39.67971 | -5.72796 | 37996 ft | 438 kts | 254° |
| 2026-04-22 22:43 | 39.66319 | -5.80451 | 37991 ft | 437 kts | 254° |
| 2026-04-22 22:44 | 39.64686 | -5.87996 | 37984 ft | 437 kts | 253° |
| 2026-04-22 22:44 | 39.63036 | -5.95591 | 37982 ft | 437 kts | 253° |
| 2026-04-22 22:45 | 39.61382 | -6.03181 | 37981 ft | 437 kts | 253° |
| 2026-04-22 22:45 | 39.59725 | -6.10760 | 37979 ft | 436 kts | 253° |
| 2026-04-22 22:46 | 39.58065 | -6.18325 | 37960 ft | 436 kts | 253° |
| 2026-04-22 22:46 | 39.56399 | -6.25884 | 37967 ft | 436 kts | 253° |
| 2026-04-22 22:47 | 39.54734 | -6.33426 | 37977 ft | 435 kts | 253° |
| 2026-04-22 22:47 | 39.53057 | -6.40960 | 37963 ft | 435 kts | 252° |
| 2026-04-22 22:48 | 39.50777 | -6.48122 | 37960 ft | 429 kts | 243° |
| 2026-04-22 22:48 | 39.49429 | -6.51540 | 37769 ft | 423 kts | 243° |
| 2026-04-22 22:48 | 39.48126 | -6.54839 | 37270 ft | 422 kts | 243° |
| 2026-04-22 22:48 | 39.46801 | -6.58204 | 36847 ft | 417 kts | 243° |
| 2026-04-22 22:49 | 39.45492 | -6.61538 | 36367 ft | 414 kts | 243° |
| 2026-04-22 22:49 | 39.44195 | -6.64850 | 35898 ft | 410 kts | 243° |
| 2026-04-22 22:49 | 39.42914 | -6.68125 | 35405 ft | 407 kts | 243° |
| 2026-04-22 22:49 | 39.41639 | -6.71385 | 34902 ft | 405 kts | 243° |
| 2026-04-22 22:50 | 39.40371 | -6.74628 | 34412 ft | 403 kts | 243° |
| 2026-04-22 22:50 | 39.39111 | -6.77847 | 33918 ft | 400 kts | 243° |
| 2026-04-22 22:50 | 39.37859 | -6.81041 | 33440 ft | 398 kts | 243° |
| 2026-04-22 22:50 | 39.36612 | -6.84221 | 32959 ft | 395 kts | 243° |
| 2026-04-22 22:51 | 39.35373 | -6.87375 | 32503 ft | 392 kts | 243° |
| 2026-04-22 22:51 | 39.34141 | -6.90510 | 32024 ft | 389 kts | 243° |
| 2026-04-22 22:51 | 39.32920 | -6.93611 | 31558 ft | 387 kts | 243° |
| 2026-04-22 22:51 | 39.31704 | -6.96698 | 31108 ft | 384 kts | 243° |
| 2026-04-22 22:52 | 39.30497 | -6.99760 | 30643 ft | 381 kts | 243° |
| 2026-04-22 22:52 | 39.29299 | -7.02794 | 30191 ft | 378 kts | 243° |
| 2026-04-22 22:52 | 39.28109 | -7.05806 | 29735 ft | 375 kts | 243° |
| 2026-04-22 22:52 | 39.26925 | -7.08798 | 29278 ft | 373 kts | 242° |
| 2026-04-22 22:53 | 39.25748 | -7.11767 | 28819 ft | 371 kts | 242° |
| 2026-04-22 22:53 | 39.24578 | -7.14719 | 28360 ft | 368 kts | 242° |
| 2026-04-22 22:53 | 39.23429 | -7.17617 | 27920 ft | 366 kts | 242° |
| 2026-04-22 22:53 | 39.22274 | -7.20528 | 27452 ft | 364 kts | 242° |
| 2026-04-22 22:54 | 39.21121 | -7.23428 | 27016 ft | 362 kts | 242° |
| 2026-04-22 22:54 | 39.19977 | -7.26304 | 26575 ft | 360 kts | 242° |
| 2026-04-22 22:54 | 39.18836 | -7.29168 | 26138 ft | 358 kts | 242° |
| 2026-04-22 22:54 | 39.17702 | -7.32015 | 25689 ft | 356 kts | 242° |
| 2026-04-22 22:55 | 39.16572 | -7.34846 | 25257 ft | 354 kts | 242° |
| 2026-04-22 22:55 | 39.15446 | -7.37665 | 24824 ft | 352 kts | 242° |
| 2026-04-22 22:55 | 39.13211 | -7.43253 | 23969 ft | 349 kts | 242° |
| 2026-04-22 22:56 | 39.12101 | -7.46027 | 23525 ft | 347 kts | 242° |
| 2026-04-22 22:56 | 39.10994 | -7.48790 | 23110 ft | 346 kts | 242° |
| 2026-04-22 22:56 | 39.09893 | -7.51536 | 22697 ft | 344 kts | 242° |
| 2026-04-22 22:56 | 39.08797 | -7.54266 | 22278 ft | 343 kts | 242° |
| 2026-04-22 22:57 | 39.07705 | -7.56986 | 21846 ft | 341 kts | 242° |
| 2026-04-22 22:57 | 39.06618 | -7.59691 | 21427 ft | 340 kts | 241° |
| 2026-04-22 22:57 | 39.05533 | -7.62386 | 21025 ft | 338 kts | 241° |
| 2026-04-22 22:57 | 39.04451 | -7.65071 | 20605 ft | 337 kts | 242° |
| 2026-04-22 22:58 | 39.03408 | -7.67734 | 20199 ft | 336 kts | 242° |
| 2026-04-22 22:58 | 39.02380 | -7.70436 | 19782 ft | 335 kts | 243° |
| 2026-04-22 22:58 | 39.01360 | -7.73128 | 19368 ft | 334 kts | 242° |
| 2026-04-22 22:58 | 39.00343 | -7.75809 | 18950 ft | 333 kts | 242° |
| 2026-04-22 22:59 | 38.99327 | -7.78481 | 18534 ft | 333 kts | 242° |
| 2026-04-22 22:59 | 38.98310 | -7.81151 | 18121 ft | 332 kts | 242° |
| 2026-04-22 22:59 | 38.97295 | -7.83806 | 17707 ft | 331 kts | 242° |
| 2026-04-22 22:59 | 38.96281 | -7.86457 | 17281 ft | 330 kts | 242° |
| 2026-04-22 23:00 | 38.95271 | -7.89094 | 16888 ft | 329 kts | 242° |
| 2026-04-22 23:00 | 38.94257 | -7.91738 | 16472 ft | 328 kts | 242° |
| 2026-04-22 23:00 | 38.93262 | -7.94329 | 16072 ft | 327 kts | 242° |
| 2026-04-22 23:00 | 38.92257 | -7.96945 | 15669 ft | 326 kts | 242° |
| 2026-04-22 23:01 | 38.91253 | -7.99566 | 15254 ft | 323 kts | 243° |
| 2026-04-22 23:01 | 38.90639 | -8.02325 | 14840 ft | 325 kts | 261° |
| 2026-04-22 23:01 | 38.90732 | -8.05243 | 14451 ft | 329 kts | 274° |
| 2026-04-22 23:01 | 38.91062 | -8.08150 | 14046 ft | 328 kts | 274° |
| 2026-04-22 23:02 | 38.91400 | -8.11050 | 13634 ft | 328 kts | 274° |
| 2026-04-22 23:02 | 38.91729 | -8.13948 | 13233 ft | 328 kts | 274° |
| 2026-04-22 23:02 | 38.92050 | -8.16850 | 12817 ft | 328 kts | 274° |
| 2026-04-22 23:02 | 38.92363 | -8.19751 | 12410 ft | 328 kts | 274° |
| 2026-04-22 23:03 | 38.92666 | -8.22614 | 12004 ft | 328 kts | 274° |
| 2026-04-22 23:03 | 38.92972 | -8.25522 | 11594 ft | 329 kts | 274° |
| 2026-04-22 23:03 | 38.93357 | -8.28429 | 11231 ft | 323 kts | 284° |
| 2026-04-22 23:03 | 38.94389 | -8.30936 | 10975 ft | 324 kts | 306° |
| 2026-04-22 23:04 | 38.96060 | -8.32855 | 10724 ft | 323 kts | 326° |
| 2026-04-22 23:04 | 38.98108 | -8.33991 | 10469 ft | 320 kts | 345° |
| 2026-04-22 23:04 | 39.00303 | -8.34224 | 10208 ft | 315 kts | 6° |
| 2026-04-22 23:04 | 39.02397 | -8.33513 | 9953 ft | 309 kts | 27° |
| 2026-04-22 23:05 | 39.04139 | -8.31975 | 9700 ft | 301 kts | 47° |
| 2026-04-22 23:05 | 39.05359 | -8.29853 | 9450 ft | 292 kts | 65° |
| 2026-04-22 23:05 | 39.06107 | -8.27461 | 9200 ft | 285 kts | 77° |
| 2026-04-22 23:05 | 39.06354 | -8.24985 | 8932 ft | 274 kts | 96° |
| 2026-04-22 23:06 | 39.06137 | -8.22574 | 8697 ft | 269 kts | 99° |
| 2026-04-22 23:06 | 39.05928 | -8.20225 | 8441 ft | 268 kts | 96° |
| 2026-04-22 23:06 | 39.05842 | -8.17691 | 8230 ft | 295 kts | 95° |
| 2026-04-22 23:06 | 39.05313 | -8.15202 | 7943 ft | 287 kts | 124° |
| 2026-04-22 23:07 | 39.03891 | -8.13527 | 7827 ft | 269 kts | 151° |
| 2026-04-22 23:07 | 39.02295 | -8.12319 | 7831 ft | 264 kts | 147° |
| 2026-04-22 23:07 | 39.00789 | -8.11012 | 7827 ft | 263 kts | 146° |
| 2026-04-22 23:07 | 38.99292 | -8.09667 | 7825 ft | 262 kts | 145° |
| 2026-04-22 23:08 | 38.97799 | -8.08318 | 7824 ft | 261 kts | 145° |
| 2026-04-22 23:08 | 38.96311 | -8.06973 | 7819 ft | 261 kts | 145° |
| 2026-04-22 23:08 | 38.95329 | -8.06085 | 7822 ft | 261 kts | 145° |
| 2026-04-22 23:08 | 38.93829 | -8.04783 | 7813 ft | 257 kts | 153° |
| 2026-04-22 23:09 | 38.92089 | -8.04358 | 7829 ft | 262 kts | 188° |
| 2026-04-22 23:09 | 38.90386 | -8.05225 | 7831 ft | 267 kts | 208° |
| 2026-04-22 23:09 | 38.88742 | -8.06367 | 7835 ft | 270 kts | 204° |
| 2026-04-22 23:09 | 38.87039 | -8.07410 | 7834 ft | 271 kts | 208° |
| 2026-04-22 23:10 | 38.85593 | -8.08941 | 7817 ft | 271 kts | 228° |
| 2026-04-22 23:10 | 38.84399 | -8.10829 | 7814 ft | 273 kts | 229° |
| 2026-04-22 23:10 | 38.83202 | -8.12723 | 7815 ft | 274 kts | 229° |
| 2026-04-22 23:10 | 38.81995 | -8.14622 | 7817 ft | 274 kts | 229° |
| 2026-04-22 23:11 | 38.80787 | -8.16512 | 7816 ft | 274 kts | 229° |
| 2026-04-22 23:11 | 38.79578 | -8.18396 | 7812 ft | 273 kts | 229° |
| 2026-04-22 23:11 | 38.78372 | -8.20265 | 7809 ft | 272 kts | 228° |
| 2026-04-22 23:11 | 38.77200 | -8.22078 | 7806 ft | 271 kts | 228° |
| 2026-04-22 23:12 | 38.75999 | -8.23931 | 7803 ft | 270 kts | 228° |
| 2026-04-22 23:12 | 38.74803 | -8.25773 | 7805 ft | 269 kts | 228° |
| 2026-04-22 23:12 | 38.73607 | -8.27612 | 7806 ft | 268 kts | 228° |
| 2026-04-22 23:12 | 38.72430 | -8.29419 | 7809 ft | 268 kts | 228° |
| 2026-04-22 23:13 | 38.71238 | -8.31250 | 7811 ft | 268 kts | 228° |
| 2026-04-22 23:13 | 38.70042 | -8.33084 | 7811 ft | 268 kts | 228° |
| 2026-04-22 23:13 | 38.68846 | -8.34918 | 7812 ft | 269 kts | 228° |
| 2026-04-22 23:13 | 38.67646 | -8.36756 | 7818 ft | 269 kts | 228° |
| 2026-04-22 23:14 | 38.66447 | -8.38593 | 7819 ft | 269 kts | 228° |
| 2026-04-22 23:14 | 38.65242 | -8.40435 | 7819 ft | 270 kts | 228° |
| 2026-04-22 23:14 | 38.64038 | -8.42276 | 7820 ft | 270 kts | 228° |
| 2026-04-22 23:14 | 38.62831 | -8.44119 | 7822 ft | 270 kts | 228° |
| 2026-04-22 23:15 | 38.61624 | -8.45963 | 7821 ft | 271 kts | 228° |
| 2026-04-22 23:15 | 38.60415 | -8.47810 | 7832 ft | 270 kts | 228° |
| 2026-04-22 23:15 | 38.59216 | -8.49641 | 7919 ft | 269 kts | 228° |
| 2026-04-22 23:15 | 38.58010 | -8.51480 | 7977 ft | 270 kts | 228° |
| 2026-04-22 23:16 | 38.56798 | -8.53325 | 7984 ft | 272 kts | 228° |
| 2026-04-22 23:16 | 38.55584 | -8.55174 | 7984 ft | 271 kts | 228° |
| 2026-04-22 23:16 | 38.54374 | -8.57008 | 7970 ft | 270 kts | 227° |
| 2026-04-22 23:16 | 38.53146 | -8.58824 | 7985 ft | 269 kts | 227° |
| 2026-04-22 23:17 | 38.51911 | -8.60634 | 7977 ft | 269 kts | 227° |
| 2026-04-22 23:17 | 38.50682 | -8.62433 | 7983 ft | 269 kts | 227° |
| 2026-04-22 23:17 | 38.49453 | -8.64234 | 7983 ft | 269 kts | 227° |
| 2026-04-22 23:17 | 38.48225 | -8.66034 | 8042 ft | 268 kts | 227° |
| 2026-04-22 23:18 | 38.47013 | -8.67812 | 8127 ft | 270 kts | 227° |
| 2026-04-22 23:18 | 38.45772 | -8.69630 | 8179 ft | 271 kts | 227° |
| 2026-04-22 23:18 | 38.44531 | -8.71447 | 8194 ft | 271 kts | 227° |
| 2026-04-22 23:18 | 38.43295 | -8.73259 | 8185 ft | 270 kts | 227° |
| 2026-04-22 23:19 | 38.42061 | -8.75064 | 8188 ft | 269 kts | 227° |
| 2026-04-22 23:19 | 38.40833 | -8.76861 | 8072 ft | 268 kts | 227° |
| 2026-04-22 23:19 | 38.39610 | -8.78649 | 7824 ft | 267 kts | 227° |
| 2026-04-22 23:19 | 38.38391 | -8.80431 | 7512 ft | 266 kts | 227° |
| 2026-04-22 23:20 | 38.37175 | -8.82206 | 7185 ft | 266 kts | 227° |
| 2026-04-22 23:20 | 38.35971 | -8.83963 | 7051 ft | 258 kts | 227° |
| 2026-04-22 23:20 | 38.34793 | -8.85684 | 6997 ft | 259 kts | 227° |
| 2026-04-22 23:20 | 38.33736 | -8.87552 | 6990 ft | 266 kts | 246° |
| 2026-04-22 23:21 | 38.33487 | -8.89903 | 7014 ft | 276 kts | 277° |
| 2026-04-22 23:21 | 38.34252 | -8.92128 | 6998 ft | 279 kts | 309° |
| 2026-04-22 23:21 | 38.35619 | -8.93839 | 7019 ft | 275 kts | 316° |
| 2026-04-22 23:21 | 38.37001 | -8.95497 | 6996 ft | 274 kts | 315° |
| 2026-04-22 23:22 | 38.38346 | -8.97153 | 6975 ft | 261 kts | 310° |
| 2026-04-22 23:22 | 38.39188 | -8.99110 | 6997 ft | 251 kts | 279° |
| 2026-04-22 23:22 | 38.39173 | -9.01287 | 7015 ft | 246 kts | 255° |
| 2026-04-22 23:22 | 38.38545 | -9.03296 | 7004 ft | 244 kts | 237° |
| 2026-04-22 23:23 | 38.37614 | -9.05119 | 7013 ft | 246 kts | 233° |
| 2026-04-22 23:23 | 38.36643 | -9.06929 | 6997 ft | 248 kts | 233° |
| 2026-04-22 23:23 | 38.35674 | -9.08750 | 7012 ft | 248 kts | 234° |
| 2026-04-22 23:23 | 38.34738 | -9.10586 | 6992 ft | 245 kts | 241° |
| 2026-04-22 23:24 | 38.34276 | -9.12650 | 7016 ft | 242 kts | 259° |
| 2026-04-22 23:24 | 38.34008 | -9.14769 | 7017 ft | 243 kts | 257° |
| 2026-04-22 23:24 | 38.33692 | -9.16897 | 7019 ft | 245 kts | 257° |
| 2026-04-22 23:24 | 38.33366 | -9.19042 | 7021 ft | 248 kts | 257° |
| 2026-04-22 23:25 | 38.33038 | -9.21175 | 7014 ft | 249 kts | 256° |
| 2026-04-22 23:25 | 38.32721 | -9.23347 | 6997 ft | 248 kts | 262° |
| 2026-04-22 23:25 | 38.32887 | -9.25518 | 7019 ft | 246 kts | 282° |
| 2026-04-22 23:25 | 38.33284 | -9.27649 | 7020 ft | 248 kts | 280° |
| 2026-04-22 23:26 | 38.33640 | -9.29808 | 7020 ft | 250 kts | 279° |
| 2026-04-22 23:26 | 38.33989 | -9.31989 | 7020 ft | 252 kts | 279° |
| 2026-04-22 23:26 | 38.34338 | -9.34191 | 7015 ft | 254 kts | 279° |
| 2026-04-22 23:26 | 38.34711 | -9.36386 | 6998 ft | 251 kts | 286° |
| 2026-04-22 23:27 | 38.35543 | -9.38319 | 7023 ft | 249 kts | 304° |
| 2026-04-22 23:27 | 38.36558 | -9.40116 | 7025 ft | 250 kts | 303° |
| 2026-04-22 23:27 | 38.37545 | -9.41956 | 7027 ft | 253 kts | 302° |
| 2026-04-22 23:27 | 38.38532 | -9.43822 | 7032 ft | 255 kts | 302° |
| 2026-04-22 23:28 | 38.39527 | -9.45708 | 7026 ft | 257 kts | 302° |
| 2026-04-22 23:28 | 38.40544 | -9.47542 | 6997 ft | 254 kts | 311° |
| 2026-04-22 23:28 | 38.41935 | -9.48891 | 7026 ft | 251 kts | 327° |
| 2026-04-22 23:28 | 38.43422 | -9.50087 | 7027 ft | 254 kts | 326° |
| 2026-04-22 23:29 | 38.44908 | -9.51316 | 7020 ft | 254 kts | 329° |
| 2026-04-22 23:29 | 38.46581 | -9.51947 | 7021 ft | 253 kts | 2° |
| 2026-04-22 23:29 | 38.48259 | -9.51367 | 7026 ft | 252 kts | 33° |
| 2026-04-22 23:29 | 38.49512 | -9.49809 | 6822 ft | 255 kts | 62° |
| 2026-04-22 23:30 | 38.50081 | -9.47711 | 6635 ft | 247 kts | 83° |
| 2026-04-22 23:30 | 38.50330 | -9.45556 | 6463 ft | 245 kts | 84° |
| 2026-04-22 23:30 | 38.50574 | -9.43407 | 6281 ft | 244 kts | 84° |
| 2026-04-22 23:30 | 38.50817 | -9.41270 | 6096 ft | 243 kts | 84° |
| 2026-04-22 23:31 | 38.51060 | -9.39141 | 5925 ft | 241 kts | 83° |
| 2026-04-22 23:31 | 38.51300 | -9.37055 | 5761 ft | 240 kts | 83° |
| 2026-04-22 23:31 | 38.51543 | -9.34951 | 5590 ft | 238 kts | 83° |
| 2026-04-22 23:31 | 38.51771 | -9.32993 | 5434 ft | 237 kts | 83° |
| 2026-04-22 23:32 | 38.52015 | -9.30913 | 5267 ft | 237 kts | 83° |
| 2026-04-22 23:32 | 38.52257 | -9.28839 | 5104 ft | 236 kts | 83° |
| 2026-04-22 23:32 | 38.52497 | -9.26774 | 4935 ft | 235 kts | 83° |
| 2026-04-22 23:32 | 38.52748 | -9.24739 | 4779 ft | 227 kts | 77° |
| 2026-04-22 23:33 | 38.53476 | -9.23036 | 4593 ft | 215 kts | 41° |
| 2026-04-22 23:33 | 38.54754 | -9.22209 | 4496 ft | 203 kts | 11° |
| 2026-04-22 23:33 | 38.56143 | -9.22120 | 4324 ft | 200 kts | 349° |
| 2026-04-22 23:33 | 38.57467 | -9.22650 | 4193 ft | 199 kts | 336° |
| 2026-04-22 23:34 | 38.58758 | -9.23259 | 4058 ft | 196 kts | 349° |
| 2026-04-22 23:34 | 38.60089 | -9.23066 | 3811 ft | 190 kts | 18° |
| 2026-04-22 23:34 | 38.61288 | -9.22522 | 3549 ft | 176 kts | 19° |
| 2026-04-22 23:34 | 38.62363 | -9.21992 | 3354 ft | 161 kts | 21° |
| 2026-04-22 23:35 | 38.63382 | -9.21462 | 3149 ft | 156 kts | 21° |
| 2026-04-22 23:35 | 38.64385 | -9.20931 | 2947 ft | 157 kts | 21° |
| 2026-04-22 23:35 | 38.65392 | -9.20394 | 2734 ft | 156 kts | 20° |
| 2026-04-22 23:35 | 38.66382 | -9.19867 | 2507 ft | 152 kts | 20° |
| 2026-04-22 23:36 | 38.67353 | -9.19350 | 2320 ft | 151 kts | 20° |
| 2026-04-22 23:36 | 38.68321 | -9.18835 | 2123 ft | 150 kts | 20° |
| 2026-04-22 23:36 | 38.69290 | -9.18319 | 1924 ft | 150 kts | 20° |
| 2026-04-22 23:36 | 38.70249 | -9.17806 | 1722 ft | 148 kts | 20° |
| 2026-04-22 23:37 | 38.71195 | -9.17301 | 1523 ft | 147 kts | 20° |
| 2026-04-22 23:37 | 38.72136 | -9.16797 | 1342 ft | 145 kts | 20° |
| 2026-04-22 23:37 | 38.73052 | -9.16307 | 1143 ft | 144 kts | 21° |
| 2026-04-22 23:37 | 38.73980 | -9.15787 | 922 ft | 144 kts | 21° |
| 2026-04-22 23:38 | 38.74890 | -9.15317 | 748 ft | 143 kts | 20° |
| 2026-04-22 23:38 | 38.75810 | -9.14828 | 585 ft | 144 kts | 20° |
| 2026-04-22 23:38 | 38.76740 | -9.14339 | 399 ft | 144 kts | 21° |
| 2026-04-22 23:38 | 38.77625 | -9.13864 | 373 ft | 126 kts | 23° |
| 2026-04-22 23:39 | 38.78298 | -9.13506 | 372 ft | 78 kts | 22° |
| 2026-04-22 23:39 | 38.78547 | -9.13348 | 368 ft | 11 kts | 76° |
| 2026-04-22 23:39 | 38.78505 | -9.13250 | 366 ft | 14 kts | 147° |
| 2026-04-22 23:39 | 38.78464 | -9.13229 | 366 ft | 0 kts | 168° |
| 2026-04-22 23:40 | 38.78437 | -9.13224 | 365 ft | 10 kts | 177° |
| 2026-04-22 23:41 | 38.78364 | -9.13240 | 364 ft | 11 kts | 199° |
| 2026-04-22 23:41 | 38.78290 | -9.13281 | 364 ft | 12 kts | 203° |
| 2026-04-22 23:41 | 38.78212 | -9.13321 | 367 ft | 13 kts | 201° |
| 2026-04-22 23:41 | 38.78127 | -9.13365 | 370 ft | 14 kts | 201° |
| 2026-04-22 23:42 | 38.78036 | -9.13404 | 365 ft | 14 kts | 186° |
| 2026-04-22 23:42 | 38.77929 | -9.13390 | 363 ft | 17 kts | 167° |
| 2026-04-22 23:42 | 38.77802 | -9.13357 | 351 ft | 17 kts | 168° |
| 2026-04-22 23:42 | 38.77669 | -9.13325 | 346 ft | 21 kts | 173° |
| 2026-04-22 23:43 | 38.77529 | -9.13306 | 351 ft | 14 kts | 168° |
| 2026-04-22 23:43 | 38.77478 | -9.13277 | 351 ft | 5 kts | 111° |
| 2026-04-22 23:43 | 38.77479 | -9.13225 | 342 ft | 7 kts | 82° |
| 2026-04-22 23:43 | 38.77484 | -9.13191 | 350 ft | 3 kts | 78° |
| 2026-04-22 23:44 | 38.77487 | -9.13174 | 349 ft | 0 kts | 78° |